<?xml version="1.0" encoding="UTF-8" standalone="no" ?>
<gpx xmlns="http://www.topografix.com/GPX/1/1" xmlns:xsi="http://www.w3.org/2001/XMLSchema-instance" xsi:schemaLocation="http://www.topografix.com/GPX/1/1 http://www.topografix.com/GPX/1/1/gpx.xsd" version="1.1" creator="VisuGPX - https://www.visugpx.com">
  <metadata>
    <name>Roque Haute - Bimont - Beibemus - Zola</name>
    <desc><![CDATA[Beau parcours à l'Ouest de la Ste Victoire, domaine de Roques Hautes. Très varié: pistes, singles, quelques passages techniques, quelques passages raides mais pas longs. Ceci dans un cadre magnifique! Attention aux randonneurs, particulièrement dans les descentes, les chemins sont très empruntés.]]></desc>
  </metadata>
  <trk>
    <name><![CDATA[20181227100723-FFh3H]]></name>
    <trkseg>
      <trkpt lat="43.52358" lon="5.54751">
        <ele>206.35</ele>
        <time>2018-12-22T07:57:55Z</time>
      </trkpt>
      <trkpt lat="43.52378" lon="5.54743">
        <ele>198.27</ele>
        <time>2018-12-22T08:02:14Z</time>
      </trkpt>
      <trkpt lat="43.52394" lon="5.54732">
        <ele>198.85</ele>
        <time>2018-12-22T08:02:25Z</time>
      </trkpt>
      <trkpt lat="43.52412" lon="5.54735">
        <ele>201.17</ele>
        <time>2018-12-22T08:02:35Z</time>
      </trkpt>
      <trkpt lat="43.52432" lon="5.54734">
        <ele>203.92</ele>
        <time>2018-12-22T08:02:44Z</time>
      </trkpt>
      <trkpt lat="43.52449" lon="5.5472">
        <ele>204.61</ele>
        <time>2018-12-22T08:02:51Z</time>
      </trkpt>
      <trkpt lat="43.52466" lon="5.54708">
        <ele>205.5</ele>
        <time>2018-12-22T08:02:59Z</time>
      </trkpt>
      <trkpt lat="43.5248" lon="5.5469">
        <ele>205.43</ele>
        <time>2018-12-22T08:03:06Z</time>
      </trkpt>
      <trkpt lat="43.52493" lon="5.54669">
        <ele>204.77</ele>
        <time>2018-12-22T08:03:14Z</time>
      </trkpt>
      <trkpt lat="43.52505" lon="5.5465">
        <ele>204.43</ele>
        <time>2018-12-22T08:03:23Z</time>
      </trkpt>
      <trkpt lat="43.52515" lon="5.54628">
        <ele>204.25</ele>
        <time>2018-12-22T08:03:30Z</time>
      </trkpt>
      <trkpt lat="43.52527" lon="5.54608">
        <ele>205.08</ele>
        <time>2018-12-22T08:03:39Z</time>
      </trkpt>
      <trkpt lat="43.52538" lon="5.54586">
        <ele>206.62</ele>
        <time>2018-12-22T08:03:49Z</time>
      </trkpt>
      <trkpt lat="43.52548" lon="5.54564">
        <ele>207.14</ele>
        <time>2018-12-22T08:03:58Z</time>
      </trkpt>
      <trkpt lat="43.52556" lon="5.54539">
        <ele>208.22</ele>
        <time>2018-12-22T08:04:09Z</time>
      </trkpt>
      <trkpt lat="43.5257" lon="5.54522">
        <ele>209.95</ele>
        <time>2018-12-22T08:04:24Z</time>
      </trkpt>
      <trkpt lat="43.52566" lon="5.54496">
        <ele>209.94</ele>
        <time>2018-12-22T08:04:36Z</time>
      </trkpt>
      <trkpt lat="43.52562" lon="5.5447">
        <ele>210.44</ele>
        <time>2018-12-22T08:04:48Z</time>
      </trkpt>
      <trkpt lat="43.52559" lon="5.54445">
        <ele>211.23</ele>
        <time>2018-12-22T08:04:59Z</time>
      </trkpt>
      <trkpt lat="43.52555" lon="5.5442">
        <ele>213.39</ele>
        <time>2018-12-22T08:05:10Z</time>
      </trkpt>
      <trkpt lat="43.5255" lon="5.54394">
        <ele>216.92</ele>
        <time>2018-12-22T08:05:23Z</time>
      </trkpt>
      <trkpt lat="43.52546" lon="5.54368">
        <ele>218.4</ele>
        <time>2018-12-22T08:05:36Z</time>
      </trkpt>
      <trkpt lat="43.52543" lon="5.54342">
        <ele>220.88</ele>
        <time>2018-12-22T08:05:49Z</time>
      </trkpt>
      <trkpt lat="43.52541" lon="5.54315">
        <ele>223.8</ele>
        <time>2018-12-22T08:06:02Z</time>
      </trkpt>
      <trkpt lat="43.52547" lon="5.54291">
        <ele>225.92</ele>
        <time>2018-12-22T08:06:16Z</time>
      </trkpt>
      <trkpt lat="43.52553" lon="5.54266">
        <ele>228.77</ele>
        <time>2018-12-22T08:06:29Z</time>
      </trkpt>
      <trkpt lat="43.52559" lon="5.54241">
        <ele>233.27</ele>
        <time>2018-12-22T08:06:45Z</time>
      </trkpt>
      <trkpt lat="43.52563" lon="5.54215">
        <ele>237.39</ele>
        <time>2018-12-22T08:06:57Z</time>
      </trkpt>
      <trkpt lat="43.52563" lon="5.5419">
        <ele>240.47</ele>
        <time>2018-12-22T08:07:06Z</time>
      </trkpt>
      <trkpt lat="43.52561" lon="5.54163">
        <ele>241.55</ele>
        <time>2018-12-22T08:07:19Z</time>
      </trkpt>
      <trkpt lat="43.5257" lon="5.5414">
        <ele>241.65</ele>
        <time>2018-12-22T08:07:31Z</time>
      </trkpt>
      <trkpt lat="43.52571" lon="5.54114">
        <ele>242.8</ele>
        <time>2018-12-22T08:07:43Z</time>
      </trkpt>
      <trkpt lat="43.52561" lon="5.54091">
        <ele>244.78</ele>
        <time>2018-12-22T08:07:58Z</time>
      </trkpt>
      <trkpt lat="43.52558" lon="5.54066">
        <ele>246.5</ele>
        <time>2018-12-22T08:08:13Z</time>
      </trkpt>
      <trkpt lat="43.52566" lon="5.54044">
        <ele>248.64</ele>
        <time>2018-12-22T08:08:26Z</time>
      </trkpt>
      <trkpt lat="43.52576" lon="5.54022">
        <ele>251.77</ele>
        <time>2018-12-22T08:08:39Z</time>
      </trkpt>
      <trkpt lat="43.5258" lon="5.53997">
        <ele>254.47</ele>
        <time>2018-12-22T08:08:52Z</time>
      </trkpt>
      <trkpt lat="43.5258" lon="5.53972">
        <ele>257.42</ele>
        <time>2018-12-22T08:09:05Z</time>
      </trkpt>
      <trkpt lat="43.5258" lon="5.53947">
        <ele>260.2</ele>
        <time>2018-12-22T08:09:18Z</time>
      </trkpt>
      <trkpt lat="43.52582" lon="5.53921">
        <ele>263.6</ele>
        <time>2018-12-22T08:09:32Z</time>
      </trkpt>
      <trkpt lat="43.52582" lon="5.53895">
        <ele>266.42</ele>
        <time>2018-12-22T08:09:46Z</time>
      </trkpt>
      <trkpt lat="43.52581" lon="5.5387">
        <ele>269.85</ele>
        <time>2018-12-22T08:09:59Z</time>
      </trkpt>
      <trkpt lat="43.5258" lon="5.53844">
        <ele>271.63</ele>
        <time>2018-12-22T08:10:13Z</time>
      </trkpt>
      <trkpt lat="43.52576" lon="5.53817">
        <ele>270.02</ele>
        <time>2018-12-22T08:10:21Z</time>
      </trkpt>
      <trkpt lat="43.52572" lon="5.53792">
        <ele>268.04</ele>
        <time>2018-12-22T08:10:26Z</time>
      </trkpt>
      <trkpt lat="43.52564" lon="5.53768">
        <ele>267.71</ele>
        <time>2018-12-22T08:10:32Z</time>
      </trkpt>
      <trkpt lat="43.52556" lon="5.53745">
        <ele>268.95</ele>
        <time>2018-12-22T08:10:40Z</time>
      </trkpt>
      <trkpt lat="43.5255" lon="5.53717">
        <ele>267.7</ele>
        <time>2018-12-22T08:10:46Z</time>
      </trkpt>
      <trkpt lat="43.52552" lon="5.53691">
        <ele>265.71</ele>
        <time>2018-12-22T08:10:50Z</time>
      </trkpt>
      <trkpt lat="43.52565" lon="5.53671">
        <ele>265.17</ele>
        <time>2018-12-22T08:10:54Z</time>
      </trkpt>
      <trkpt lat="43.52582" lon="5.53661">
        <ele>266.22</ele>
        <time>2018-12-22T08:10:59Z</time>
      </trkpt>
      <trkpt lat="43.526" lon="5.53654">
        <ele>271.05</ele>
        <time>2018-12-22T08:11:10Z</time>
      </trkpt>
      <trkpt lat="43.52618" lon="5.53645">
        <ele>275.27</ele>
        <time>2018-12-22T08:11:22Z</time>
      </trkpt>
      <trkpt lat="43.52637" lon="5.53646">
        <ele>279.47</ele>
        <time>2018-12-22T08:11:35Z</time>
      </trkpt>
      <trkpt lat="43.52654" lon="5.53656">
        <ele>279.73</ele>
        <time>2018-12-22T08:11:46Z</time>
      </trkpt>
      <trkpt lat="43.52672" lon="5.53646">
        <ele>279.76</ele>
        <time>2018-12-22T08:11:58Z</time>
      </trkpt>
      <trkpt lat="43.52681" lon="5.53623">
        <ele>279.82</ele>
        <time>2018-12-22T08:12:08Z</time>
      </trkpt>
      <trkpt lat="43.52687" lon="5.53599">
        <ele>281.7</ele>
        <time>2018-12-22T08:12:19Z</time>
      </trkpt>
      <trkpt lat="43.5269" lon="5.53573">
        <ele>283.5</ele>
        <time>2018-12-22T08:12:31Z</time>
      </trkpt>
      <trkpt lat="43.52692" lon="5.53548">
        <ele>285.81</ele>
        <time>2018-12-22T08:12:44Z</time>
      </trkpt>
      <trkpt lat="43.52693" lon="5.53521">
        <ele>287.64</ele>
        <time>2018-12-22T08:12:56Z</time>
      </trkpt>
      <trkpt lat="43.52693" lon="5.53495">
        <ele>290.58</ele>
        <time>2018-12-22T08:13:10Z</time>
      </trkpt>
      <trkpt lat="43.52692" lon="5.5347">
        <ele>292.5</ele>
        <time>2018-12-22T08:13:22Z</time>
      </trkpt>
      <trkpt lat="43.5269" lon="5.53444">
        <ele>294.7</ele>
        <time>2018-12-22T08:13:35Z</time>
      </trkpt>
      <trkpt lat="43.5269" lon="5.53417">
        <ele>297</ele>
        <time>2018-12-22T08:13:48Z</time>
      </trkpt>
      <trkpt lat="43.52689" lon="5.53392">
        <ele>299.4</ele>
        <time>2018-12-22T08:14:01Z</time>
      </trkpt>
      <trkpt lat="43.52689" lon="5.53365">
        <ele>301.22</ele>
        <time>2018-12-22T08:14:13Z</time>
      </trkpt>
      <trkpt lat="43.52691" lon="5.5334">
        <ele>302.32</ele>
        <time>2018-12-22T08:14:23Z</time>
      </trkpt>
      <trkpt lat="43.52695" lon="5.53314">
        <ele>303.07</ele>
        <time>2018-12-22T08:14:34Z</time>
      </trkpt>
      <trkpt lat="43.52699" lon="5.53288">
        <ele>303.6</ele>
        <time>2018-12-22T08:14:44Z</time>
      </trkpt>
      <trkpt lat="43.52703" lon="5.53264">
        <ele>304.73</ele>
        <time>2018-12-22T08:14:54Z</time>
      </trkpt>
      <trkpt lat="43.52709" lon="5.53239">
        <ele>306.23</ele>
        <time>2018-12-22T08:15:05Z</time>
      </trkpt>
      <trkpt lat="43.52724" lon="5.53222">
        <ele>306.9</ele>
        <time>2018-12-22T08:15:15Z</time>
      </trkpt>
      <trkpt lat="43.52742" lon="5.53211">
        <ele>308.02</ele>
        <time>2018-12-22T08:15:25Z</time>
      </trkpt>
      <trkpt lat="43.5276" lon="5.53204">
        <ele>308.65</ele>
        <time>2018-12-22T08:15:35Z</time>
      </trkpt>
      <trkpt lat="43.5278" lon="5.53196">
        <ele>308.26</ele>
        <time>2018-12-22T08:15:44Z</time>
      </trkpt>
      <trkpt lat="43.52799" lon="5.53186">
        <ele>307.67</ele>
        <time>2018-12-22T08:15:51Z</time>
      </trkpt>
      <trkpt lat="43.52811" lon="5.53164">
        <ele>306.78</ele>
        <time>2018-12-22T08:15:56Z</time>
      </trkpt>
      <trkpt lat="43.52819" lon="5.53141">
        <ele>306.55</ele>
        <time>2018-12-22T08:16:01Z</time>
      </trkpt>
      <trkpt lat="43.52827" lon="5.53117">
        <ele>306.94</ele>
        <time>2018-12-22T08:16:07Z</time>
      </trkpt>
      <trkpt lat="43.52834" lon="5.53092">
        <ele>307.14</ele>
        <time>2018-12-22T08:16:14Z</time>
      </trkpt>
      <trkpt lat="43.5284" lon="5.53067">
        <ele>307.7</ele>
        <time>2018-12-22T08:16:21Z</time>
      </trkpt>
      <trkpt lat="43.52844" lon="5.53043">
        <ele>308.62</ele>
        <time>2018-12-22T08:16:28Z</time>
      </trkpt>
      <trkpt lat="43.52849" lon="5.53017">
        <ele>309.14</ele>
        <time>2018-12-22T08:16:36Z</time>
      </trkpt>
      <trkpt lat="43.52858" lon="5.52991">
        <ele>309.35</ele>
        <time>2018-12-22T08:16:44Z</time>
      </trkpt>
      <trkpt lat="43.52869" lon="5.52972">
        <ele>309.63</ele>
        <time>2018-12-22T08:16:51Z</time>
      </trkpt>
      <trkpt lat="43.52882" lon="5.52952">
        <ele>309.79</ele>
        <time>2018-12-22T08:16:58Z</time>
      </trkpt>
      <trkpt lat="43.52896" lon="5.52931">
        <ele>309.75</ele>
        <time>2018-12-22T08:17:05Z</time>
      </trkpt>
      <trkpt lat="43.52909" lon="5.52909">
        <ele>309.75</ele>
        <time>2018-12-22T08:17:12Z</time>
      </trkpt>
      <trkpt lat="43.52921" lon="5.52888">
        <ele>309.17</ele>
        <time>2018-12-22T08:17:19Z</time>
      </trkpt>
      <trkpt lat="43.52932" lon="5.52868">
        <ele>308.38</ele>
        <time>2018-12-22T08:17:25Z</time>
      </trkpt>
      <trkpt lat="43.52947" lon="5.52854">
        <ele>307.95</ele>
        <time>2018-12-22T08:17:31Z</time>
      </trkpt>
      <trkpt lat="43.52966" lon="5.52847">
        <ele>307.85</ele>
        <time>2018-12-22T08:17:38Z</time>
      </trkpt>
      <trkpt lat="43.52985" lon="5.52846">
        <ele>307.95</ele>
        <time>2018-12-22T08:17:45Z</time>
      </trkpt>
      <trkpt lat="43.53005" lon="5.5285">
        <ele>307.65</ele>
        <time>2018-12-22T08:17:52Z</time>
      </trkpt>
      <trkpt lat="43.53024" lon="5.52857">
        <ele>307.21</ele>
        <time>2018-12-22T08:17:59Z</time>
      </trkpt>
      <trkpt lat="43.53041" lon="5.52869">
        <ele>307.63</ele>
        <time>2018-12-22T08:18:06Z</time>
      </trkpt>
      <trkpt lat="43.53054" lon="5.5289">
        <ele>307.67</ele>
        <time>2018-12-22T08:18:14Z</time>
      </trkpt>
      <trkpt lat="43.53066" lon="5.52913">
        <ele>307.35</ele>
        <time>2018-12-22T08:18:21Z</time>
      </trkpt>
      <trkpt lat="43.53076" lon="5.52934">
        <ele>306.93</ele>
        <time>2018-12-22T08:18:27Z</time>
      </trkpt>
      <trkpt lat="43.53088" lon="5.52958">
        <ele>306.02</ele>
        <time>2018-12-22T08:18:33Z</time>
      </trkpt>
      <trkpt lat="43.53101" lon="5.52983">
        <ele>304.7</ele>
        <time>2018-12-22T08:18:38Z</time>
      </trkpt>
      <trkpt lat="43.53112" lon="5.53007">
        <ele>303.54</ele>
        <time>2018-12-22T08:18:42Z</time>
      </trkpt>
      <trkpt lat="43.5312" lon="5.53035">
        <ele>302.03</ele>
        <time>2018-12-22T08:18:46Z</time>
      </trkpt>
      <trkpt lat="43.53126" lon="5.53065">
        <ele>300.92</ele>
        <time>2018-12-22T08:18:50Z</time>
      </trkpt>
      <trkpt lat="43.53134" lon="5.53091">
        <ele>299.51</ele>
        <time>2018-12-22T08:18:53Z</time>
      </trkpt>
      <trkpt lat="43.53147" lon="5.53115">
        <ele>298.23</ele>
        <time>2018-12-22T08:18:56Z</time>
      </trkpt>
      <trkpt lat="43.53162" lon="5.53133">
        <ele>298.08</ele>
        <time>2018-12-22T08:18:59Z</time>
      </trkpt>
      <trkpt lat="43.5318" lon="5.53147">
        <ele>299.35</ele>
        <time>2018-12-22T08:19:03Z</time>
      </trkpt>
      <trkpt lat="43.53197" lon="5.53159">
        <ele>300.78</ele>
        <time>2018-12-22T08:19:08Z</time>
      </trkpt>
      <trkpt lat="43.53215" lon="5.53169">
        <ele>303.77</ele>
        <time>2018-12-22T08:19:17Z</time>
      </trkpt>
      <trkpt lat="43.53234" lon="5.53178">
        <ele>305.7</ele>
        <time>2018-12-22T08:19:27Z</time>
      </trkpt>
      <trkpt lat="43.53251" lon="5.53186">
        <ele>307.7</ele>
        <time>2018-12-22T08:19:37Z</time>
      </trkpt>
      <trkpt lat="43.53268" lon="5.53196">
        <ele>310.3</ele>
        <time>2018-12-22T08:19:48Z</time>
      </trkpt>
      <trkpt lat="43.53285" lon="5.53207">
        <ele>312.78</ele>
        <time>2018-12-22T08:19:59Z</time>
      </trkpt>
      <trkpt lat="43.53301" lon="5.5322">
        <ele>314.62</ele>
        <time>2018-12-22T08:20:10Z</time>
      </trkpt>
      <trkpt lat="43.53319" lon="5.53231">
        <ele>315.8</ele>
        <time>2018-12-22T08:20:20Z</time>
      </trkpt>
      <trkpt lat="43.53337" lon="5.53242">
        <ele>316.15</ele>
        <time>2018-12-22T08:20:29Z</time>
      </trkpt>
      <trkpt lat="43.53355" lon="5.53253">
        <ele>315.87</ele>
        <time>2018-12-22T08:20:38Z</time>
      </trkpt>
      <trkpt lat="43.53373" lon="5.5327">
        <ele>314.79</ele>
        <time>2018-12-22T08:20:45Z</time>
      </trkpt>
      <trkpt lat="43.53388" lon="5.53283">
        <ele>313.43</ele>
        <time>2018-12-22T08:20:49Z</time>
      </trkpt>
      <trkpt lat="43.53408" lon="5.53302">
        <ele>311.35</ele>
        <time>2018-12-22T08:20:53Z</time>
      </trkpt>
      <trkpt lat="43.53424" lon="5.53316">
        <ele>310.46</ele>
        <time>2018-12-22T08:20:56Z</time>
      </trkpt>
      <trkpt lat="43.53442" lon="5.53334">
        <ele>310.62</ele>
        <time>2018-12-22T08:21:00Z</time>
      </trkpt>
      <trkpt lat="43.53458" lon="5.53351">
        <ele>312.07</ele>
        <time>2018-12-22T08:21:06Z</time>
      </trkpt>
      <trkpt lat="43.53473" lon="5.53368">
        <ele>314.09</ele>
        <time>2018-12-22T08:21:15Z</time>
      </trkpt>
      <trkpt lat="43.53486" lon="5.53386">
        <ele>316.3</ele>
        <time>2018-12-22T08:21:24Z</time>
      </trkpt>
      <trkpt lat="43.53497" lon="5.53407">
        <ele>318.69</ele>
        <time>2018-12-22T08:21:34Z</time>
      </trkpt>
      <trkpt lat="43.53505" lon="5.53431">
        <ele>319.9</ele>
        <time>2018-12-22T08:21:43Z</time>
      </trkpt>
      <trkpt lat="43.53506" lon="5.53456">
        <ele>321.89</ele>
        <time>2018-12-22T08:21:51Z</time>
      </trkpt>
      <trkpt lat="43.53506" lon="5.53484">
        <ele>322.5</ele>
        <time>2018-12-22T08:21:59Z</time>
      </trkpt>
      <trkpt lat="43.53507" lon="5.5351">
        <ele>323.32</ele>
        <time>2018-12-22T08:22:07Z</time>
      </trkpt>
      <trkpt lat="43.53516" lon="5.53536">
        <ele>324.86</ele>
        <time>2018-12-22T08:22:14Z</time>
      </trkpt>
      <trkpt lat="43.53527" lon="5.5356">
        <ele>325.58</ele>
        <time>2018-12-22T08:22:20Z</time>
      </trkpt>
      <trkpt lat="43.53539" lon="5.53579">
        <ele>326.07</ele>
        <time>2018-12-22T08:22:25Z</time>
      </trkpt>
      <trkpt lat="43.53554" lon="5.53594">
        <ele>324.24</ele>
        <time>2018-12-22T08:22:30Z</time>
      </trkpt>
      <trkpt lat="43.53574" lon="5.53606">
        <ele>324.04</ele>
        <time>2018-12-22T08:22:36Z</time>
      </trkpt>
      <trkpt lat="43.53592" lon="5.53612">
        <ele>322.79</ele>
        <time>2018-12-22T08:22:41Z</time>
      </trkpt>
      <trkpt lat="43.53613" lon="5.53613">
        <ele>321.48</ele>
        <time>2018-12-22T08:22:47Z</time>
      </trkpt>
      <trkpt lat="43.53634" lon="5.53606">
        <ele>320.51</ele>
        <time>2018-12-22T08:22:53Z</time>
      </trkpt>
      <trkpt lat="43.53652" lon="5.53594">
        <ele>319.42</ele>
        <time>2018-12-22T08:22:58Z</time>
      </trkpt>
      <trkpt lat="43.53667" lon="5.53581">
        <ele>318.99</ele>
        <time>2018-12-22T08:23:03Z</time>
      </trkpt>
      <trkpt lat="43.53686" lon="5.5357">
        <ele>318.21</ele>
        <time>2018-12-22T08:23:09Z</time>
      </trkpt>
      <trkpt lat="43.53703" lon="5.53559">
        <ele>317.8</ele>
        <time>2018-12-22T08:23:15Z</time>
      </trkpt>
      <trkpt lat="43.53721" lon="5.53549">
        <ele>318.05</ele>
        <time>2018-12-22T08:23:21Z</time>
      </trkpt>
      <trkpt lat="43.53741" lon="5.5355">
        <ele>318.6</ele>
        <time>2018-12-22T08:23:27Z</time>
      </trkpt>
      <trkpt lat="43.53761" lon="5.53556">
        <ele>318.3</ele>
        <time>2018-12-22T08:23:34Z</time>
      </trkpt>
      <trkpt lat="43.5378" lon="5.53562">
        <ele>318.79</ele>
        <time>2018-12-22T08:23:43Z</time>
      </trkpt>
      <trkpt lat="43.538" lon="5.5357">
        <ele>315.2</ele>
        <time>2018-12-22T08:23:49Z</time>
      </trkpt>
      <trkpt lat="43.53815" lon="5.53586">
        <ele>313.78</ele>
        <time>2018-12-22T08:23:55Z</time>
      </trkpt>
      <trkpt lat="43.53834" lon="5.53594">
        <ele>312.83</ele>
        <time>2018-12-22T08:24:01Z</time>
      </trkpt>
      <trkpt lat="43.53853" lon="5.53592">
        <ele>312.2</ele>
        <time>2018-12-22T08:24:05Z</time>
      </trkpt>
      <trkpt lat="43.5387" lon="5.53581">
        <ele>311.09</ele>
        <time>2018-12-22T08:24:08Z</time>
      </trkpt>
      <trkpt lat="43.53888" lon="5.53569">
        <ele>309.51</ele>
        <time>2018-12-22T08:24:11Z</time>
      </trkpt>
      <trkpt lat="43.53909" lon="5.53564">
        <ele>308.55</ele>
        <time>2018-12-22T08:24:15Z</time>
      </trkpt>
      <trkpt lat="43.53924" lon="5.5358">
        <ele>307.07</ele>
        <time>2018-12-22T08:24:19Z</time>
      </trkpt>
      <trkpt lat="43.53939" lon="5.53603">
        <ele>304.27</ele>
        <time>2018-12-22T08:24:23Z</time>
      </trkpt>
      <trkpt lat="43.53955" lon="5.53617">
        <ele>304.48</ele>
        <time>2018-12-22T08:24:26Z</time>
      </trkpt>
      <trkpt lat="43.53974" lon="5.53632">
        <ele>303.68</ele>
        <time>2018-12-22T08:24:30Z</time>
      </trkpt>
      <trkpt lat="43.53995" lon="5.53645">
        <ele>303.27</ele>
        <time>2018-12-22T08:24:34Z</time>
      </trkpt>
      <trkpt lat="43.54017" lon="5.53654">
        <ele>303.07</ele>
        <time>2018-12-22T08:24:38Z</time>
      </trkpt>
      <trkpt lat="43.54037" lon="5.53656">
        <ele>302.65</ele>
        <time>2018-12-22T08:24:42Z</time>
      </trkpt>
      <trkpt lat="43.54056" lon="5.53654">
        <ele>302.25</ele>
        <time>2018-12-22T08:24:47Z</time>
      </trkpt>
      <trkpt lat="43.54072" lon="5.53642">
        <ele>301.13</ele>
        <time>2018-12-22T08:26:22Z</time>
      </trkpt>
      <trkpt lat="43.54092" lon="5.53634">
        <ele>300.35</ele>
        <time>2018-12-22T08:27:55Z</time>
      </trkpt>
      <trkpt lat="43.54108" lon="5.53622">
        <ele>300.07</ele>
        <time>2018-12-22T08:28:02Z</time>
      </trkpt>
      <trkpt lat="43.54124" lon="5.53604">
        <ele>299.75</ele>
        <time>2018-12-22T08:28:10Z</time>
      </trkpt>
      <trkpt lat="43.54138" lon="5.53586">
        <ele>299.37</ele>
        <time>2018-12-22T08:28:16Z</time>
      </trkpt>
      <trkpt lat="43.54151" lon="5.53566">
        <ele>299.52</ele>
        <time>2018-12-22T08:28:22Z</time>
      </trkpt>
      <trkpt lat="43.54154" lon="5.53538">
        <ele>300.6</ele>
        <time>2018-12-22T08:28:29Z</time>
      </trkpt>
      <trkpt lat="43.54148" lon="5.53513">
        <ele>302.87</ele>
        <time>2018-12-22T08:28:37Z</time>
      </trkpt>
      <trkpt lat="43.54141" lon="5.53489">
        <ele>306.17</ele>
        <time>2018-12-22T08:28:46Z</time>
      </trkpt>
      <trkpt lat="43.54137" lon="5.53463">
        <ele>307.65</ele>
        <time>2018-12-22T08:28:57Z</time>
      </trkpt>
      <trkpt lat="43.5414" lon="5.53436">
        <ele>307.29</ele>
        <time>2018-12-22T08:29:08Z</time>
      </trkpt>
      <trkpt lat="43.54151" lon="5.53415">
        <ele>305.29</ele>
        <time>2018-12-22T08:29:16Z</time>
      </trkpt>
      <trkpt lat="43.5416" lon="5.53392">
        <ele>304.47</ele>
        <time>2018-12-22T08:29:24Z</time>
      </trkpt>
      <trkpt lat="43.54165" lon="5.53366">
        <ele>304.72</ele>
        <time>2018-12-22T08:29:31Z</time>
      </trkpt>
      <trkpt lat="43.54165" lon="5.53336">
        <ele>305.17</ele>
        <time>2018-12-22T08:29:38Z</time>
      </trkpt>
      <trkpt lat="43.54164" lon="5.53307">
        <ele>304.5</ele>
        <time>2018-12-22T08:29:43Z</time>
      </trkpt>
      <trkpt lat="43.54157" lon="5.53279">
        <ele>304.33</ele>
        <time>2018-12-22T08:29:48Z</time>
      </trkpt>
      <trkpt lat="43.54146" lon="5.53255">
        <ele>305.28</ele>
        <time>2018-12-22T08:29:54Z</time>
      </trkpt>
      <trkpt lat="43.54133" lon="5.53236">
        <ele>305.45</ele>
        <time>2018-12-22T08:29:59Z</time>
      </trkpt>
      <trkpt lat="43.54122" lon="5.53215">
        <ele>305.84</ele>
        <time>2018-12-22T08:30:04Z</time>
      </trkpt>
      <trkpt lat="43.54109" lon="5.53194">
        <ele>306.72</ele>
        <time>2018-12-22T08:30:09Z</time>
      </trkpt>
      <trkpt lat="43.54096" lon="5.53171">
        <ele>306.57</ele>
        <time>2018-12-22T08:30:15Z</time>
      </trkpt>
      <trkpt lat="43.54086" lon="5.53145">
        <ele>306.41</ele>
        <time>2018-12-22T08:30:21Z</time>
      </trkpt>
      <trkpt lat="43.5408" lon="5.53119">
        <ele>306.47</ele>
        <time>2018-12-22T08:30:26Z</time>
      </trkpt>
      <trkpt lat="43.54081" lon="5.53094">
        <ele>305.6</ele>
        <time>2018-12-22T08:30:31Z</time>
      </trkpt>
      <trkpt lat="43.54092" lon="5.53073">
        <ele>304.2</ele>
        <time>2018-12-22T08:30:36Z</time>
      </trkpt>
      <trkpt lat="43.54106" lon="5.53052">
        <ele>304.48</ele>
        <time>2018-12-22T08:30:42Z</time>
      </trkpt>
      <trkpt lat="43.54119" lon="5.53034">
        <ele>303.73</ele>
        <time>2018-12-22T08:30:47Z</time>
      </trkpt>
      <trkpt lat="43.54132" lon="5.53008">
        <ele>301.37</ele>
        <time>2018-12-22T08:30:52Z</time>
      </trkpt>
      <trkpt lat="43.54128" lon="5.52982">
        <ele>301.75</ele>
        <time>2018-12-22T08:30:58Z</time>
      </trkpt>
      <trkpt lat="43.54111" lon="5.52968">
        <ele>302.91</ele>
        <time>2018-12-22T08:31:02Z</time>
      </trkpt>
      <trkpt lat="43.54095" lon="5.52949">
        <ele>304.55</ele>
        <time>2018-12-22T08:31:07Z</time>
      </trkpt>
      <trkpt lat="43.54084" lon="5.52926">
        <ele>305.5</ele>
        <time>2018-12-22T08:31:12Z</time>
      </trkpt>
      <trkpt lat="43.54074" lon="5.52903">
        <ele>305.94</ele>
        <time>2018-12-22T08:31:16Z</time>
      </trkpt>
      <trkpt lat="43.54065" lon="5.52881">
        <ele>306.76</ele>
        <time>2018-12-22T08:31:20Z</time>
      </trkpt>
      <trkpt lat="43.54049" lon="5.52866">
        <ele>309.1</ele>
        <time>2018-12-22T08:31:26Z</time>
      </trkpt>
      <trkpt lat="43.54035" lon="5.52845">
        <ele>310.56</ele>
        <time>2018-12-22T08:31:31Z</time>
      </trkpt>
      <trkpt lat="43.5402" lon="5.52827">
        <ele>312.17</ele>
        <time>2018-12-22T08:31:36Z</time>
      </trkpt>
      <trkpt lat="43.54001" lon="5.52816">
        <ele>312.01</ele>
        <time>2018-12-22T08:31:41Z</time>
      </trkpt>
      <trkpt lat="43.53991" lon="5.52795">
        <ele>311.39</ele>
        <time>2018-12-22T08:31:45Z</time>
      </trkpt>
      <trkpt lat="43.53989" lon="5.52767">
        <ele>309.13</ele>
        <time>2018-12-22T08:31:50Z</time>
      </trkpt>
      <trkpt lat="43.53987" lon="5.52735">
        <ele>306.28</ele>
        <time>2018-12-22T08:31:55Z</time>
      </trkpt>
      <trkpt lat="43.53983" lon="5.52706">
        <ele>303.52</ele>
        <time>2018-12-22T08:31:59Z</time>
      </trkpt>
      <trkpt lat="43.53974" lon="5.52677">
        <ele>300.62</ele>
        <time>2018-12-22T08:32:03Z</time>
      </trkpt>
      <trkpt lat="43.53965" lon="5.52649">
        <ele>298.76</ele>
        <time>2018-12-22T08:32:07Z</time>
      </trkpt>
      <trkpt lat="43.53966" lon="5.52617">
        <ele>297.8</ele>
        <time>2018-12-22T08:32:11Z</time>
      </trkpt>
      <trkpt lat="43.53957" lon="5.52588">
        <ele>295.88</ele>
        <time>2018-12-22T08:32:15Z</time>
      </trkpt>
      <trkpt lat="43.5395" lon="5.52559">
        <ele>295.71</ele>
        <time>2018-12-22T08:32:19Z</time>
      </trkpt>
      <trkpt lat="43.53953" lon="5.52533">
        <ele>295.58</ele>
        <time>2018-12-22T08:32:24Z</time>
      </trkpt>
      <trkpt lat="43.53952" lon="5.52508">
        <ele>294.03</ele>
        <time>2018-12-22T08:32:42Z</time>
      </trkpt>
      <trkpt lat="43.53939" lon="5.52488">
        <ele>295.36</ele>
        <time>2018-12-22T08:33:03Z</time>
      </trkpt>
      <trkpt lat="43.53921" lon="5.52481">
        <ele>295.07</ele>
        <time>2018-12-22T08:33:08Z</time>
      </trkpt>
      <trkpt lat="43.53907" lon="5.52462">
        <ele>295.74</ele>
        <time>2018-12-22T08:33:13Z</time>
      </trkpt>
      <trkpt lat="43.53898" lon="5.5244">
        <ele>297</ele>
        <time>2018-12-22T08:33:18Z</time>
      </trkpt>
      <trkpt lat="43.53893" lon="5.52415">
        <ele>296.65</ele>
        <time>2018-12-22T08:33:22Z</time>
      </trkpt>
      <trkpt lat="43.5389" lon="5.52387">
        <ele>297.62</ele>
        <time>2018-12-22T08:33:27Z</time>
      </trkpt>
      <trkpt lat="43.53889" lon="5.52362">
        <ele>298.48</ele>
        <time>2018-12-22T08:33:33Z</time>
      </trkpt>
      <trkpt lat="43.53879" lon="5.52339">
        <ele>299.2</ele>
        <time>2018-12-22T08:33:38Z</time>
      </trkpt>
      <trkpt lat="43.53874" lon="5.52311">
        <ele>299.9</ele>
        <time>2018-12-22T08:33:42Z</time>
      </trkpt>
      <trkpt lat="43.53864" lon="5.52284">
        <ele>300.27</ele>
        <time>2018-12-22T08:33:46Z</time>
      </trkpt>
      <trkpt lat="43.53852" lon="5.52265">
        <ele>299.13</ele>
        <time>2018-12-22T08:33:49Z</time>
      </trkpt>
      <trkpt lat="43.53839" lon="5.52244">
        <ele>297.27</ele>
        <time>2018-12-22T08:33:53Z</time>
      </trkpt>
      <trkpt lat="43.53822" lon="5.52229">
        <ele>294.82</ele>
        <time>2018-12-22T08:33:58Z</time>
      </trkpt>
      <trkpt lat="43.53809" lon="5.52212">
        <ele>293.44</ele>
        <time>2018-12-22T08:34:03Z</time>
      </trkpt>
      <trkpt lat="43.538" lon="5.52187">
        <ele>292.19</ele>
        <time>2018-12-22T08:34:07Z</time>
      </trkpt>
      <trkpt lat="43.53802" lon="5.52162">
        <ele>290.03</ele>
        <time>2018-12-22T08:34:13Z</time>
      </trkpt>
      <trkpt lat="43.53822" lon="5.52151">
        <ele>289.75</ele>
        <time>2018-12-22T08:34:20Z</time>
      </trkpt>
      <trkpt lat="43.5384" lon="5.52154">
        <ele>290.02</ele>
        <time>2018-12-22T08:34:26Z</time>
      </trkpt>
      <trkpt lat="43.53858" lon="5.52166">
        <ele>291.36</ele>
        <time>2018-12-22T08:34:32Z</time>
      </trkpt>
      <trkpt lat="43.53877" lon="5.52177">
        <ele>291.47</ele>
        <time>2018-12-22T08:34:38Z</time>
      </trkpt>
      <trkpt lat="43.53898" lon="5.52172">
        <ele>290.06</ele>
        <time>2018-12-22T08:34:43Z</time>
      </trkpt>
      <trkpt lat="43.53919" lon="5.52163">
        <ele>288.59</ele>
        <time>2018-12-22T08:34:48Z</time>
      </trkpt>
      <trkpt lat="43.53936" lon="5.52154">
        <ele>288</ele>
        <time>2018-12-22T08:34:52Z</time>
      </trkpt>
      <trkpt lat="43.53952" lon="5.52141">
        <ele>287.31</ele>
        <time>2018-12-22T08:34:56Z</time>
      </trkpt>
      <trkpt lat="43.53968" lon="5.52126">
        <ele>287.07</ele>
        <time>2018-12-22T08:35:01Z</time>
      </trkpt>
      <trkpt lat="43.53974" lon="5.52102">
        <ele>286.92</ele>
        <time>2018-12-22T08:35:13Z</time>
      </trkpt>
      <trkpt lat="43.53962" lon="5.52083">
        <ele>288.38</ele>
        <time>2018-12-22T08:35:23Z</time>
      </trkpt>
      <trkpt lat="43.53951" lon="5.52061">
        <ele>291.65</ele>
        <time>2018-12-22T08:35:31Z</time>
      </trkpt>
      <trkpt lat="43.53937" lon="5.52042">
        <ele>293.59</ele>
        <time>2018-12-22T08:35:36Z</time>
      </trkpt>
      <trkpt lat="43.53929" lon="5.52016">
        <ele>295.5</ele>
        <time>2018-12-22T08:35:42Z</time>
      </trkpt>
      <trkpt lat="43.53945" lon="5.51997">
        <ele>296.25</ele>
        <time>2018-12-22T08:35:47Z</time>
      </trkpt>
      <trkpt lat="43.5396" lon="5.51979">
        <ele>296.22</ele>
        <time>2018-12-22T08:35:51Z</time>
      </trkpt>
      <trkpt lat="43.53981" lon="5.51968">
        <ele>297.07</ele>
        <time>2018-12-22T08:35:56Z</time>
      </trkpt>
      <trkpt lat="43.54" lon="5.51956">
        <ele>297.64</ele>
        <time>2018-12-22T08:36:01Z</time>
      </trkpt>
      <trkpt lat="43.54018" lon="5.51938">
        <ele>298.02</ele>
        <time>2018-12-22T08:36:05Z</time>
      </trkpt>
      <trkpt lat="43.54033" lon="5.51913">
        <ele>298.81</ele>
        <time>2018-12-22T08:36:09Z</time>
      </trkpt>
      <trkpt lat="43.54045" lon="5.51891">
        <ele>298.98</ele>
        <time>2018-12-22T08:36:13Z</time>
      </trkpt>
      <trkpt lat="43.54039" lon="5.51864">
        <ele>299.37</ele>
        <time>2018-12-22T08:36:19Z</time>
      </trkpt>
      <trkpt lat="43.54022" lon="5.51851">
        <ele>296.38</ele>
        <time>2018-12-22T08:36:29Z</time>
      </trkpt>
      <trkpt lat="43.54003" lon="5.51847">
        <ele>297.84</ele>
        <time>2018-12-22T08:36:35Z</time>
      </trkpt>
      <trkpt lat="43.53986" lon="5.51835">
        <ele>299.22</ele>
        <time>2018-12-22T08:36:41Z</time>
      </trkpt>
      <trkpt lat="43.53969" lon="5.51819">
        <ele>298.89</ele>
        <time>2018-12-22T08:36:46Z</time>
      </trkpt>
      <trkpt lat="43.53957" lon="5.518">
        <ele>297.96</ele>
        <time>2018-12-22T08:36:50Z</time>
      </trkpt>
      <trkpt lat="43.53946" lon="5.51779">
        <ele>297.67</ele>
        <time>2018-12-22T08:36:54Z</time>
      </trkpt>
      <trkpt lat="43.53936" lon="5.51754">
        <ele>294.76</ele>
        <time>2018-12-22T08:36:58Z</time>
      </trkpt>
      <trkpt lat="43.53923" lon="5.51729">
        <ele>290.51</ele>
        <time>2018-12-22T08:37:03Z</time>
      </trkpt>
      <trkpt lat="43.53907" lon="5.51715">
        <ele>289.43</ele>
        <time>2018-12-22T08:37:07Z</time>
      </trkpt>
      <trkpt lat="43.53886" lon="5.51707">
        <ele>289.53</ele>
        <time>2018-12-22T08:37:12Z</time>
      </trkpt>
      <trkpt lat="43.53869" lon="5.51698">
        <ele>289.88</ele>
        <time>2018-12-22T08:37:16Z</time>
      </trkpt>
      <trkpt lat="43.53851" lon="5.51684">
        <ele>288.8</ele>
        <time>2018-12-22T08:37:20Z</time>
      </trkpt>
      <trkpt lat="43.53832" lon="5.51673">
        <ele>288.37</ele>
        <time>2018-12-22T08:37:24Z</time>
      </trkpt>
      <trkpt lat="43.53814" lon="5.51667">
        <ele>287.27</ele>
        <time>2018-12-22T08:37:28Z</time>
      </trkpt>
      <trkpt lat="43.53798" lon="5.5165">
        <ele>287.09</ele>
        <time>2018-12-22T08:37:32Z</time>
      </trkpt>
      <trkpt lat="43.53795" lon="5.51622">
        <ele>287.12</ele>
        <time>2018-12-22T08:37:37Z</time>
      </trkpt>
      <trkpt lat="43.53787" lon="5.51596">
        <ele>285.99</ele>
        <time>2018-12-22T08:37:41Z</time>
      </trkpt>
      <trkpt lat="43.53776" lon="5.51575">
        <ele>285.69</ele>
        <time>2018-12-22T08:37:45Z</time>
      </trkpt>
      <trkpt lat="43.53761" lon="5.51557">
        <ele>285.27</ele>
        <time>2018-12-22T08:37:49Z</time>
      </trkpt>
      <trkpt lat="43.53749" lon="5.51536">
        <ele>285.82</ele>
        <time>2018-12-22T08:37:53Z</time>
      </trkpt>
      <trkpt lat="43.53736" lon="5.51514">
        <ele>285.87</ele>
        <time>2018-12-22T08:37:57Z</time>
      </trkpt>
      <trkpt lat="43.53723" lon="5.51491">
        <ele>285.28</ele>
        <time>2018-12-22T08:38:01Z</time>
      </trkpt>
      <trkpt lat="43.53713" lon="5.51468">
        <ele>284.39</ele>
        <time>2018-12-22T08:38:05Z</time>
      </trkpt>
      <trkpt lat="43.53717" lon="5.51441">
        <ele>283.35</ele>
        <time>2018-12-22T08:38:10Z</time>
      </trkpt>
      <trkpt lat="43.53734" lon="5.51427">
        <ele>282.75</ele>
        <time>2018-12-22T08:38:14Z</time>
      </trkpt>
      <trkpt lat="43.53735" lon="5.514">
        <ele>284.02</ele>
        <time>2018-12-22T08:38:20Z</time>
      </trkpt>
      <trkpt lat="43.53721" lon="5.51382">
        <ele>285.79</ele>
        <time>2018-12-22T08:38:24Z</time>
      </trkpt>
      <trkpt lat="43.53706" lon="5.51364">
        <ele>285.53</ele>
        <time>2018-12-22T08:38:28Z</time>
      </trkpt>
      <trkpt lat="43.53689" lon="5.51344">
        <ele>284.04</ele>
        <time>2018-12-22T08:38:33Z</time>
      </trkpt>
      <trkpt lat="43.53679" lon="5.51322">
        <ele>283.66</ele>
        <time>2018-12-22T08:38:37Z</time>
      </trkpt>
      <trkpt lat="43.53673" lon="5.51292">
        <ele>282.85</ele>
        <time>2018-12-22T08:38:42Z</time>
      </trkpt>
      <trkpt lat="43.53673" lon="5.51267">
        <ele>282.94</ele>
        <time>2018-12-22T08:38:46Z</time>
      </trkpt>
      <trkpt lat="43.53677" lon="5.51237">
        <ele>282.69</ele>
        <time>2018-12-22T08:38:51Z</time>
      </trkpt>
      <trkpt lat="43.53681" lon="5.51211">
        <ele>282.79</ele>
        <time>2018-12-22T08:38:56Z</time>
      </trkpt>
      <trkpt lat="43.53698" lon="5.51195">
        <ele>281.15</ele>
        <time>2018-12-22T08:39:00Z</time>
      </trkpt>
      <trkpt lat="43.53716" lon="5.51186">
        <ele>281.36</ele>
        <time>2018-12-22T08:39:04Z</time>
      </trkpt>
      <trkpt lat="43.53735" lon="5.51174">
        <ele>280.81</ele>
        <time>2018-12-22T08:39:09Z</time>
      </trkpt>
      <trkpt lat="43.53739" lon="5.51148">
        <ele>279.55</ele>
        <time>2018-12-22T08:39:14Z</time>
      </trkpt>
      <trkpt lat="43.53724" lon="5.5113">
        <ele>279.15</ele>
        <time>2018-12-22T08:39:18Z</time>
      </trkpt>
      <trkpt lat="43.53712" lon="5.5111">
        <ele>278.29</ele>
        <time>2018-12-22T08:39:50Z</time>
      </trkpt>
      <trkpt lat="43.53716" lon="5.51085">
        <ele>279.12</ele>
        <time>2018-12-22T08:40:08Z</time>
      </trkpt>
      <trkpt lat="43.53719" lon="5.51056">
        <ele>283.97</ele>
        <time>2018-12-22T08:40:43Z</time>
      </trkpt>
      <trkpt lat="43.53715" lon="5.51031">
        <ele>285.9</ele>
        <time>2018-12-22T08:41:02Z</time>
      </trkpt>
      <trkpt lat="43.53706" lon="5.51008">
        <ele>288.02</ele>
        <time>2018-12-22T08:41:49Z</time>
      </trkpt>
      <trkpt lat="43.53701" lon="5.50983">
        <ele>288.86</ele>
        <time>2018-12-22T08:41:58Z</time>
      </trkpt>
      <trkpt lat="43.53695" lon="5.50957">
        <ele>290.08</ele>
        <time>2018-12-22T08:42:06Z</time>
      </trkpt>
      <trkpt lat="43.53706" lon="5.50934">
        <ele>290.19</ele>
        <time>2018-12-22T08:42:12Z</time>
      </trkpt>
      <trkpt lat="43.53707" lon="5.50906">
        <ele>290.94</ele>
        <time>2018-12-22T08:42:17Z</time>
      </trkpt>
      <trkpt lat="43.5371" lon="5.5088">
        <ele>290.99</ele>
        <time>2018-12-22T08:42:21Z</time>
      </trkpt>
      <trkpt lat="43.5372" lon="5.50859">
        <ele>289.77</ele>
        <time>2018-12-22T08:42:26Z</time>
      </trkpt>
      <trkpt lat="43.53737" lon="5.50851">
        <ele>289.66</ele>
        <time>2018-12-22T08:42:32Z</time>
      </trkpt>
      <trkpt lat="43.53757" lon="5.5085">
        <ele>291.6</ele>
        <time>2018-12-22T08:42:41Z</time>
      </trkpt>
      <trkpt lat="43.53776" lon="5.50854">
        <ele>296.76</ele>
        <time>2018-12-22T08:42:52Z</time>
      </trkpt>
      <trkpt lat="43.53795" lon="5.50854">
        <ele>297.17</ele>
        <time>2018-12-22T08:43:03Z</time>
      </trkpt>
      <trkpt lat="43.53812" lon="5.50863">
        <ele>300.35</ele>
        <time>2018-12-22T08:43:12Z</time>
      </trkpt>
      <trkpt lat="43.5383" lon="5.50871">
        <ele>304.8</ele>
        <time>2018-12-22T08:43:23Z</time>
      </trkpt>
      <trkpt lat="43.5385" lon="5.50869">
        <ele>305.92</ele>
        <time>2018-12-22T08:43:33Z</time>
      </trkpt>
      <trkpt lat="43.53868" lon="5.50862">
        <ele>304.37</ele>
        <time>2018-12-22T08:43:41Z</time>
      </trkpt>
      <trkpt lat="43.53886" lon="5.50853">
        <ele>306.31</ele>
        <time>2018-12-22T08:43:50Z</time>
      </trkpt>
      <trkpt lat="43.53904" lon="5.50839">
        <ele>306.85</ele>
        <time>2018-12-22T08:43:59Z</time>
      </trkpt>
      <trkpt lat="43.53916" lon="5.50821">
        <ele>305.45</ele>
        <time>2018-12-22T08:44:06Z</time>
      </trkpt>
      <trkpt lat="43.53929" lon="5.50802">
        <ele>304.81</ele>
        <time>2018-12-22T08:44:13Z</time>
      </trkpt>
      <trkpt lat="43.53944" lon="5.50787">
        <ele>304.5</ele>
        <time>2018-12-22T08:44:22Z</time>
      </trkpt>
      <trkpt lat="43.53959" lon="5.50771">
        <ele>306.53</ele>
        <time>2018-12-22T08:44:30Z</time>
      </trkpt>
      <trkpt lat="43.53977" lon="5.50764">
        <ele>308.88</ele>
        <time>2018-12-22T08:44:40Z</time>
      </trkpt>
      <trkpt lat="43.53991" lon="5.50747">
        <ele>311.58</ele>
        <time>2018-12-22T08:44:52Z</time>
      </trkpt>
      <trkpt lat="43.53997" lon="5.50723">
        <ele>312.15</ele>
        <time>2018-12-22T08:44:58Z</time>
      </trkpt>
      <trkpt lat="43.54009" lon="5.50702">
        <ele>311.26</ele>
        <time>2018-12-22T08:45:04Z</time>
      </trkpt>
      <trkpt lat="43.54012" lon="5.50676">
        <ele>310.79</ele>
        <time>2018-12-22T08:45:10Z</time>
      </trkpt>
      <trkpt lat="43.5402" lon="5.50654">
        <ele>310.77</ele>
        <time>2018-12-22T08:45:16Z</time>
      </trkpt>
      <trkpt lat="43.54029" lon="5.50629">
        <ele>310.53</ele>
        <time>2018-12-22T08:45:22Z</time>
      </trkpt>
      <trkpt lat="43.54038" lon="5.50606">
        <ele>309.83</ele>
        <time>2018-12-22T08:45:26Z</time>
      </trkpt>
      <trkpt lat="43.54049" lon="5.50581">
        <ele>308.14</ele>
        <time>2018-12-22T08:45:31Z</time>
      </trkpt>
      <trkpt lat="43.54063" lon="5.50561">
        <ele>307.37</ele>
        <time>2018-12-22T08:45:36Z</time>
      </trkpt>
      <trkpt lat="43.54076" lon="5.50539">
        <ele>307.38</ele>
        <time>2018-12-22T08:45:41Z</time>
      </trkpt>
      <trkpt lat="43.54075" lon="5.50513">
        <ele>307.15</ele>
        <time>2018-12-22T08:45:46Z</time>
      </trkpt>
      <trkpt lat="43.54078" lon="5.50485">
        <ele>306.48</ele>
        <time>2018-12-22T08:45:50Z</time>
      </trkpt>
      <trkpt lat="43.54086" lon="5.50457">
        <ele>306.27</ele>
        <time>2018-12-22T08:45:54Z</time>
      </trkpt>
      <trkpt lat="43.54104" lon="5.50436">
        <ele>306.73</ele>
        <time>2018-12-22T08:45:58Z</time>
      </trkpt>
      <trkpt lat="43.5411" lon="5.50412">
        <ele>307.23</ele>
        <time>2018-12-22T08:46:03Z</time>
      </trkpt>
      <trkpt lat="43.541" lon="5.5039">
        <ele>307.17</ele>
        <time>2018-12-22T08:46:06Z</time>
      </trkpt>
      <trkpt lat="43.54089" lon="5.50365">
        <ele>307.71</ele>
        <time>2018-12-22T08:46:10Z</time>
      </trkpt>
      <trkpt lat="43.54077" lon="5.50345">
        <ele>307.86</ele>
        <time>2018-12-22T08:46:14Z</time>
      </trkpt>
      <trkpt lat="43.54059" lon="5.50335">
        <ele>307.69</ele>
        <time>2018-12-22T08:46:19Z</time>
      </trkpt>
      <trkpt lat="43.54044" lon="5.50313">
        <ele>307.47</ele>
        <time>2018-12-22T08:46:25Z</time>
      </trkpt>
      <trkpt lat="43.54031" lon="5.50288">
        <ele>307.74</ele>
        <time>2018-12-22T08:46:30Z</time>
      </trkpt>
      <trkpt lat="43.54017" lon="5.50266">
        <ele>307.35</ele>
        <time>2018-12-22T08:46:34Z</time>
      </trkpt>
      <trkpt lat="43.53999" lon="5.50252">
        <ele>306.97</ele>
        <time>2018-12-22T08:46:38Z</time>
      </trkpt>
      <trkpt lat="43.53986" lon="5.50235">
        <ele>307.05</ele>
        <time>2018-12-22T08:46:42Z</time>
      </trkpt>
      <trkpt lat="43.5397" lon="5.50217">
        <ele>307.86</ele>
        <time>2018-12-22T08:46:47Z</time>
      </trkpt>
      <trkpt lat="43.53952" lon="5.50201">
        <ele>308.84</ele>
        <time>2018-12-22T08:46:52Z</time>
      </trkpt>
      <trkpt lat="43.53936" lon="5.50186">
        <ele>308.53</ele>
        <time>2018-12-22T08:46:57Z</time>
      </trkpt>
      <trkpt lat="43.5392" lon="5.50173">
        <ele>309.66</ele>
        <time>2018-12-22T08:47:01Z</time>
      </trkpt>
      <trkpt lat="43.53898" lon="5.50175">
        <ele>309.83</ele>
        <time>2018-12-22T08:47:06Z</time>
      </trkpt>
      <trkpt lat="43.53883" lon="5.5016">
        <ele>309.39</ele>
        <time>2018-12-22T08:47:10Z</time>
      </trkpt>
      <trkpt lat="43.53867" lon="5.50142">
        <ele>308.66</ele>
        <time>2018-12-22T08:47:14Z</time>
      </trkpt>
      <trkpt lat="43.53849" lon="5.50124">
        <ele>309.11</ele>
        <time>2018-12-22T08:47:19Z</time>
      </trkpt>
      <trkpt lat="43.53837" lon="5.50104">
        <ele>309.31</ele>
        <time>2018-12-22T08:47:23Z</time>
      </trkpt>
      <trkpt lat="43.53821" lon="5.50082">
        <ele>309.15</ele>
        <time>2018-12-22T08:47:27Z</time>
      </trkpt>
      <trkpt lat="43.53809" lon="5.5006">
        <ele>308.58</ele>
        <time>2018-12-22T08:47:31Z</time>
      </trkpt>
      <trkpt lat="43.53793" lon="5.50047">
        <ele>308.64</ele>
        <time>2018-12-22T08:47:35Z</time>
      </trkpt>
      <trkpt lat="43.53784" lon="5.50025">
        <ele>309.03</ele>
        <time>2018-12-22T08:47:41Z</time>
      </trkpt>
      <trkpt lat="43.5377" lon="5.50008">
        <ele>308.97</ele>
        <time>2018-12-22T08:47:45Z</time>
      </trkpt>
      <trkpt lat="43.53762" lon="5.49986">
        <ele>308.55</ele>
        <time>2018-12-22T08:47:49Z</time>
      </trkpt>
      <trkpt lat="43.5376" lon="5.49959">
        <ele>308.43</ele>
        <time>2018-12-22T08:47:54Z</time>
      </trkpt>
      <trkpt lat="43.53756" lon="5.49933">
        <ele>308.45</ele>
        <time>2018-12-22T08:47:59Z</time>
      </trkpt>
      <trkpt lat="43.53749" lon="5.49909">
        <ele>308.43</ele>
        <time>2018-12-22T08:48:04Z</time>
      </trkpt>
      <trkpt lat="43.53728" lon="5.49899">
        <ele>308.14</ele>
        <time>2018-12-22T08:48:09Z</time>
      </trkpt>
      <trkpt lat="43.53712" lon="5.49883">
        <ele>308.06</ele>
        <time>2018-12-22T08:48:13Z</time>
      </trkpt>
      <trkpt lat="43.53699" lon="5.49865">
        <ele>307.87</ele>
        <time>2018-12-22T08:48:17Z</time>
      </trkpt>
      <trkpt lat="43.53697" lon="5.49839">
        <ele>306.37</ele>
        <time>2018-12-22T08:48:21Z</time>
      </trkpt>
      <trkpt lat="43.53696" lon="5.4981">
        <ele>303.83</ele>
        <time>2018-12-22T08:48:25Z</time>
      </trkpt>
      <trkpt lat="43.53696" lon="5.49782">
        <ele>302.53</ele>
        <time>2018-12-22T08:48:29Z</time>
      </trkpt>
      <trkpt lat="43.537" lon="5.49753">
        <ele>300.55</ele>
        <time>2018-12-22T08:48:33Z</time>
      </trkpt>
      <trkpt lat="43.53696" lon="5.49726">
        <ele>300.05</ele>
        <time>2018-12-22T08:48:38Z</time>
      </trkpt>
      <trkpt lat="43.53685" lon="5.49702">
        <ele>300.46</ele>
        <time>2018-12-22T08:48:43Z</time>
      </trkpt>
      <trkpt lat="43.53667" lon="5.49689">
        <ele>301.14</ele>
        <time>2018-12-22T08:48:48Z</time>
      </trkpt>
      <trkpt lat="43.53648" lon="5.49689">
        <ele>300.76</ele>
        <time>2018-12-22T08:48:53Z</time>
      </trkpt>
      <trkpt lat="43.53629" lon="5.49688">
        <ele>300.93</ele>
        <time>2018-12-22T08:48:58Z</time>
      </trkpt>
      <trkpt lat="43.53611" lon="5.49686">
        <ele>299.97</ele>
        <time>2018-12-22T08:49:02Z</time>
      </trkpt>
      <trkpt lat="43.53594" lon="5.49671">
        <ele>299.17</ele>
        <time>2018-12-22T08:49:06Z</time>
      </trkpt>
      <trkpt lat="43.53584" lon="5.49651">
        <ele>297.82</ele>
        <time>2018-12-22T08:49:10Z</time>
      </trkpt>
      <trkpt lat="43.53573" lon="5.49628">
        <ele>295.89</ele>
        <time>2018-12-22T08:49:14Z</time>
      </trkpt>
      <trkpt lat="43.53553" lon="5.49617">
        <ele>293.71</ele>
        <time>2018-12-22T08:49:18Z</time>
      </trkpt>
      <trkpt lat="43.53534" lon="5.49614">
        <ele>291.72</ele>
        <time>2018-12-22T08:49:21Z</time>
      </trkpt>
      <trkpt lat="43.53515" lon="5.49605">
        <ele>290.33</ele>
        <time>2018-12-22T08:49:24Z</time>
      </trkpt>
      <trkpt lat="43.53499" lon="5.49594">
        <ele>289.95</ele>
        <time>2018-12-22T08:49:27Z</time>
      </trkpt>
      <trkpt lat="43.53482" lon="5.49576">
        <ele>289.27</ele>
        <time>2018-12-22T08:49:31Z</time>
      </trkpt>
      <trkpt lat="43.53467" lon="5.49559">
        <ele>289.64</ele>
        <time>2018-12-22T08:49:35Z</time>
      </trkpt>
      <trkpt lat="43.53448" lon="5.49549">
        <ele>290.5</ele>
        <time>2018-12-22T08:49:39Z</time>
      </trkpt>
      <trkpt lat="43.53429" lon="5.49541">
        <ele>290.8</ele>
        <time>2018-12-22T08:49:43Z</time>
      </trkpt>
      <trkpt lat="43.5341" lon="5.49533">
        <ele>290.43</ele>
        <time>2018-12-22T08:49:49Z</time>
      </trkpt>
      <trkpt lat="43.53392" lon="5.49526">
        <ele>290.46</ele>
        <time>2018-12-22T08:49:54Z</time>
      </trkpt>
      <trkpt lat="43.53372" lon="5.49516">
        <ele>290.45</ele>
        <time>2018-12-22T08:50:00Z</time>
      </trkpt>
      <trkpt lat="43.53357" lon="5.495">
        <ele>288.24</ele>
        <time>2018-12-22T08:50:05Z</time>
      </trkpt>
      <trkpt lat="43.53348" lon="5.49474">
        <ele>286.01</ele>
        <time>2018-12-22T08:50:11Z</time>
      </trkpt>
      <trkpt lat="43.53336" lon="5.49454">
        <ele>284.14</ele>
        <time>2018-12-22T08:50:15Z</time>
      </trkpt>
      <trkpt lat="43.53322" lon="5.49437">
        <ele>284.81</ele>
        <time>2018-12-22T08:50:20Z</time>
      </trkpt>
      <trkpt lat="43.53308" lon="5.49422">
        <ele>284.74</ele>
        <time>2018-12-22T08:50:25Z</time>
      </trkpt>
      <trkpt lat="43.53295" lon="5.49401">
        <ele>284.71</ele>
        <time>2018-12-22T08:50:31Z</time>
      </trkpt>
      <trkpt lat="43.53277" lon="5.49392">
        <ele>286.44</ele>
        <time>2018-12-22T08:50:42Z</time>
      </trkpt>
      <trkpt lat="43.53258" lon="5.49402">
        <ele>289.7</ele>
        <time>2018-12-22T08:50:49Z</time>
      </trkpt>
      <trkpt lat="43.53244" lon="5.49418">
        <ele>293.16</ele>
        <time>2018-12-22T08:50:57Z</time>
      </trkpt>
      <trkpt lat="43.53246" lon="5.49445">
        <ele>296.94</ele>
        <time>2018-12-22T08:51:05Z</time>
      </trkpt>
      <trkpt lat="43.53252" lon="5.4947">
        <ele>300.34</ele>
        <time>2018-12-22T08:51:11Z</time>
      </trkpt>
      <trkpt lat="43.5324" lon="5.49489">
        <ele>303.08</ele>
        <time>2018-12-22T08:51:17Z</time>
      </trkpt>
      <trkpt lat="43.53221" lon="5.49499">
        <ele>305.26</ele>
        <time>2018-12-22T08:51:23Z</time>
      </trkpt>
      <trkpt lat="43.53204" lon="5.49511">
        <ele>306.77</ele>
        <time>2018-12-22T08:51:28Z</time>
      </trkpt>
      <trkpt lat="43.53186" lon="5.49508">
        <ele>307.85</ele>
        <time>2018-12-22T08:51:33Z</time>
      </trkpt>
      <trkpt lat="43.53166" lon="5.49506">
        <ele>309.1</ele>
        <time>2018-12-22T08:51:38Z</time>
      </trkpt>
      <trkpt lat="43.53146" lon="5.49503">
        <ele>308.74</ele>
        <time>2018-12-22T08:51:45Z</time>
      </trkpt>
      <trkpt lat="43.53129" lon="5.49488">
        <ele>309.12</ele>
        <time>2018-12-22T08:51:51Z</time>
      </trkpt>
      <trkpt lat="43.53114" lon="5.49474">
        <ele>310</ele>
        <time>2018-12-22T08:51:57Z</time>
      </trkpt>
      <trkpt lat="43.53099" lon="5.49456">
        <ele>310.2</ele>
        <time>2018-12-22T08:52:02Z</time>
      </trkpt>
      <trkpt lat="43.53085" lon="5.49436">
        <ele>310.62</ele>
        <time>2018-12-22T08:52:07Z</time>
      </trkpt>
      <trkpt lat="43.53068" lon="5.49419">
        <ele>310.76</ele>
        <time>2018-12-22T08:52:12Z</time>
      </trkpt>
      <trkpt lat="43.53051" lon="5.49404">
        <ele>310.84</ele>
        <time>2018-12-22T08:52:17Z</time>
      </trkpt>
      <trkpt lat="43.53033" lon="5.49414">
        <ele>308.9</ele>
        <time>2018-12-22T08:52:24Z</time>
      </trkpt>
      <trkpt lat="43.53036" lon="5.49441">
        <ele>307.04</ele>
        <time>2018-12-22T08:52:31Z</time>
      </trkpt>
      <trkpt lat="43.53044" lon="5.49468">
        <ele>307.42</ele>
        <time>2018-12-22T08:52:39Z</time>
      </trkpt>
      <trkpt lat="43.53051" lon="5.49492">
        <ele>305.8</ele>
        <time>2018-12-22T08:52:46Z</time>
      </trkpt>
      <trkpt lat="43.53051" lon="5.49519">
        <ele>307.06</ele>
        <time>2018-12-22T08:52:52Z</time>
      </trkpt>
      <trkpt lat="43.53052" lon="5.49544">
        <ele>308.2</ele>
        <time>2018-12-22T08:52:58Z</time>
      </trkpt>
      <trkpt lat="43.53057" lon="5.4957">
        <ele>307.07</ele>
        <time>2018-12-22T08:53:04Z</time>
      </trkpt>
      <trkpt lat="43.53065" lon="5.49596">
        <ele>307.31</ele>
        <time>2018-12-22T08:53:10Z</time>
      </trkpt>
      <trkpt lat="43.5307" lon="5.49621">
        <ele>308.1</ele>
        <time>2018-12-22T08:53:16Z</time>
      </trkpt>
      <trkpt lat="43.53073" lon="5.49648">
        <ele>308.29</ele>
        <time>2018-12-22T08:53:23Z</time>
      </trkpt>
      <trkpt lat="43.53074" lon="5.49677">
        <ele>308.73</ele>
        <time>2018-12-22T08:53:29Z</time>
      </trkpt>
      <trkpt lat="43.53074" lon="5.49703">
        <ele>308.68</ele>
        <time>2018-12-22T08:53:35Z</time>
      </trkpt>
      <trkpt lat="43.53078" lon="5.49727">
        <ele>308.83</ele>
        <time>2018-12-22T08:53:42Z</time>
      </trkpt>
      <trkpt lat="43.53084" lon="5.49753">
        <ele>308.4</ele>
        <time>2018-12-22T08:53:59Z</time>
      </trkpt>
      <trkpt lat="43.53079" lon="5.4978">
        <ele>309.14</ele>
        <time>2018-12-22T08:54:07Z</time>
      </trkpt>
      <trkpt lat="43.53077" lon="5.49808">
        <ele>309.69</ele>
        <time>2018-12-22T08:54:13Z</time>
      </trkpt>
      <trkpt lat="43.53074" lon="5.49836">
        <ele>310.68</ele>
        <time>2018-12-22T08:54:19Z</time>
      </trkpt>
      <trkpt lat="43.53074" lon="5.49863">
        <ele>310.55</ele>
        <time>2018-12-22T08:54:24Z</time>
      </trkpt>
      <trkpt lat="43.53076" lon="5.49888">
        <ele>308.94</ele>
        <time>2018-12-22T08:54:30Z</time>
      </trkpt>
      <trkpt lat="43.53082" lon="5.49912">
        <ele>308.73</ele>
        <time>2018-12-22T08:54:38Z</time>
      </trkpt>
      <trkpt lat="43.53092" lon="5.49934">
        <ele>306.75</ele>
        <time>2018-12-22T08:54:46Z</time>
      </trkpt>
      <trkpt lat="43.53096" lon="5.49961">
        <ele>307.01</ele>
        <time>2018-12-22T08:54:53Z</time>
      </trkpt>
      <trkpt lat="43.53088" lon="5.49983">
        <ele>306.73</ele>
        <time>2018-12-22T08:54:59Z</time>
      </trkpt>
      <trkpt lat="43.53091" lon="5.50009">
        <ele>307.64</ele>
        <time>2018-12-22T08:55:08Z</time>
      </trkpt>
      <trkpt lat="43.531" lon="5.50033">
        <ele>306.51</ele>
        <time>2018-12-22T08:55:14Z</time>
      </trkpt>
      <trkpt lat="43.53113" lon="5.50052">
        <ele>304.64</ele>
        <time>2018-12-22T08:55:21Z</time>
      </trkpt>
      <trkpt lat="43.53126" lon="5.50072">
        <ele>304.7</ele>
        <time>2018-12-22T08:55:26Z</time>
      </trkpt>
      <trkpt lat="43.53137" lon="5.50095">
        <ele>304.27</ele>
        <time>2018-12-22T08:55:31Z</time>
      </trkpt>
      <trkpt lat="43.53143" lon="5.50118">
        <ele>304.45</ele>
        <time>2018-12-22T08:55:39Z</time>
      </trkpt>
      <trkpt lat="43.53139" lon="5.50146">
        <ele>305.85</ele>
        <time>2018-12-22T08:55:47Z</time>
      </trkpt>
      <trkpt lat="43.53142" lon="5.5017">
        <ele>307.18</ele>
        <time>2018-12-22T08:55:53Z</time>
      </trkpt>
      <trkpt lat="43.53148" lon="5.50196">
        <ele>309.09</ele>
        <time>2018-12-22T08:56:00Z</time>
      </trkpt>
      <trkpt lat="43.53148" lon="5.50221">
        <ele>311.9</ele>
        <time>2018-12-22T08:56:06Z</time>
      </trkpt>
      <trkpt lat="43.53137" lon="5.50242">
        <ele>314.65</ele>
        <time>2018-12-22T08:56:13Z</time>
      </trkpt>
      <trkpt lat="43.53132" lon="5.50269">
        <ele>318.92</ele>
        <time>2018-12-22T08:56:25Z</time>
      </trkpt>
      <trkpt lat="43.53122" lon="5.5029">
        <ele>318.12</ele>
        <time>2018-12-22T08:56:44Z</time>
      </trkpt>
      <trkpt lat="43.53123" lon="5.50289">
        <ele>308.87</ele>
        <time>2018-12-22T08:58:41Z</time>
      </trkpt>
      <trkpt lat="43.53119" lon="5.50314">
        <ele>309.45</ele>
        <time>2018-12-22T08:59:07Z</time>
      </trkpt>
      <trkpt lat="43.53102" lon="5.50328">
        <ele>309.47</ele>
        <time>2018-12-22T08:59:21Z</time>
      </trkpt>
      <trkpt lat="43.53092" lon="5.50349">
        <ele>309.72</ele>
        <time>2018-12-22T08:59:26Z</time>
      </trkpt>
      <trkpt lat="43.5308" lon="5.5037">
        <ele>310.6</ele>
        <time>2018-12-22T08:59:31Z</time>
      </trkpt>
      <trkpt lat="43.53069" lon="5.50391">
        <ele>312.1</ele>
        <time>2018-12-22T08:59:40Z</time>
      </trkpt>
      <trkpt lat="43.53057" lon="5.50411">
        <ele>312.99</ele>
        <time>2018-12-22T08:59:46Z</time>
      </trkpt>
      <trkpt lat="43.53041" lon="5.50427">
        <ele>313.52</ele>
        <time>2018-12-22T08:59:52Z</time>
      </trkpt>
      <trkpt lat="43.53028" lon="5.50445">
        <ele>315.11</ele>
        <time>2018-12-22T08:59:59Z</time>
      </trkpt>
      <trkpt lat="43.53022" lon="5.50471">
        <ele>312.24</ele>
        <time>2018-12-22T09:00:08Z</time>
      </trkpt>
      <trkpt lat="43.53039" lon="5.50485">
        <ele>307.86</ele>
        <time>2018-12-22T09:00:17Z</time>
      </trkpt>
      <trkpt lat="43.53058" lon="5.50485">
        <ele>306.13</ele>
        <time>2018-12-22T09:00:24Z</time>
      </trkpt>
      <trkpt lat="43.53077" lon="5.50476">
        <ele>301.84</ele>
        <time>2018-12-22T09:00:32Z</time>
      </trkpt>
      <trkpt lat="43.53093" lon="5.50462">
        <ele>299.88</ele>
        <time>2018-12-22T09:00:40Z</time>
      </trkpt>
      <trkpt lat="43.53113" lon="5.50453">
        <ele>298.93</ele>
        <time>2018-12-22T09:00:48Z</time>
      </trkpt>
      <trkpt lat="43.5313" lon="5.5044">
        <ele>297.6</ele>
        <time>2018-12-22T09:00:54Z</time>
      </trkpt>
      <trkpt lat="43.53145" lon="5.50424">
        <ele>296.49</ele>
        <time>2018-12-22T09:00:59Z</time>
      </trkpt>
      <trkpt lat="43.53159" lon="5.50405">
        <ele>295.37</ele>
        <time>2018-12-22T09:01:05Z</time>
      </trkpt>
      <trkpt lat="43.53173" lon="5.50388">
        <ele>294.44</ele>
        <time>2018-12-22T09:01:11Z</time>
      </trkpt>
      <trkpt lat="43.5319" lon="5.50374">
        <ele>295.1</ele>
        <time>2018-12-22T09:01:18Z</time>
      </trkpt>
      <trkpt lat="43.5321" lon="5.50382">
        <ele>296.11</ele>
        <time>2018-12-22T09:01:25Z</time>
      </trkpt>
      <trkpt lat="43.53228" lon="5.50391">
        <ele>296.61</ele>
        <time>2018-12-22T09:01:30Z</time>
      </trkpt>
      <trkpt lat="43.53246" lon="5.50399">
        <ele>295.32</ele>
        <time>2018-12-22T09:01:34Z</time>
      </trkpt>
      <trkpt lat="43.53263" lon="5.50406">
        <ele>294.68</ele>
        <time>2018-12-22T09:01:38Z</time>
      </trkpt>
      <trkpt lat="43.53284" lon="5.50402">
        <ele>293.4</ele>
        <time>2018-12-22T09:01:43Z</time>
      </trkpt>
      <trkpt lat="43.53302" lon="5.50394">
        <ele>292.46</ele>
        <time>2018-12-22T09:01:47Z</time>
      </trkpt>
      <trkpt lat="43.53322" lon="5.50382">
        <ele>290.86</ele>
        <time>2018-12-22T09:01:52Z</time>
      </trkpt>
      <trkpt lat="43.53339" lon="5.5037">
        <ele>290</ele>
        <time>2018-12-22T09:01:56Z</time>
      </trkpt>
      <trkpt lat="43.53359" lon="5.50359">
        <ele>288.88</ele>
        <time>2018-12-22T09:02:01Z</time>
      </trkpt>
      <trkpt lat="43.53375" lon="5.50348">
        <ele>288.47</ele>
        <time>2018-12-22T09:02:06Z</time>
      </trkpt>
      <trkpt lat="43.53394" lon="5.50336">
        <ele>287.8</ele>
        <time>2018-12-22T09:02:11Z</time>
      </trkpt>
      <trkpt lat="43.53415" lon="5.50333">
        <ele>288.03</ele>
        <time>2018-12-22T09:02:16Z</time>
      </trkpt>
      <trkpt lat="43.53434" lon="5.50343">
        <ele>289.11</ele>
        <time>2018-12-22T09:02:21Z</time>
      </trkpt>
      <trkpt lat="43.53444" lon="5.50366">
        <ele>291.02</ele>
        <time>2018-12-22T09:02:27Z</time>
      </trkpt>
      <trkpt lat="43.53444" lon="5.50395">
        <ele>292.27</ele>
        <time>2018-12-22T09:02:33Z</time>
      </trkpt>
      <trkpt lat="43.5345" lon="5.50422">
        <ele>293.6</ele>
        <time>2018-12-22T09:02:39Z</time>
      </trkpt>
      <trkpt lat="43.53463" lon="5.50442">
        <ele>294.6</ele>
        <time>2018-12-22T09:02:45Z</time>
      </trkpt>
      <trkpt lat="43.53476" lon="5.50465">
        <ele>294.67</ele>
        <time>2018-12-22T09:02:50Z</time>
      </trkpt>
      <trkpt lat="43.53484" lon="5.50487">
        <ele>294.19</ele>
        <time>2018-12-22T09:02:54Z</time>
      </trkpt>
      <trkpt lat="43.53493" lon="5.50514">
        <ele>293.78</ele>
        <time>2018-12-22T09:02:58Z</time>
      </trkpt>
      <trkpt lat="43.535" lon="5.50537">
        <ele>293.09</ele>
        <time>2018-12-22T09:03:02Z</time>
      </trkpt>
      <trkpt lat="43.53502" lon="5.50564">
        <ele>290.97</ele>
        <time>2018-12-22T09:03:26Z</time>
      </trkpt>
      <trkpt lat="43.53519" lon="5.50558">
        <ele>283.12</ele>
        <time>2018-12-22T09:11:07Z</time>
      </trkpt>
      <trkpt lat="43.53538" lon="5.50567">
        <ele>285.1</ele>
        <time>2018-12-22T09:11:17Z</time>
      </trkpt>
      <trkpt lat="43.53556" lon="5.50577">
        <ele>286.35</ele>
        <time>2018-12-22T09:11:25Z</time>
      </trkpt>
      <trkpt lat="43.53572" lon="5.50597">
        <ele>287.54</ele>
        <time>2018-12-22T09:11:32Z</time>
      </trkpt>
      <trkpt lat="43.53587" lon="5.50613">
        <ele>289.09</ele>
        <time>2018-12-22T09:11:38Z</time>
      </trkpt>
      <trkpt lat="43.53603" lon="5.50628">
        <ele>291.05</ele>
        <time>2018-12-22T09:11:44Z</time>
      </trkpt>
      <trkpt lat="43.53612" lon="5.50651">
        <ele>293.19</ele>
        <time>2018-12-22T09:11:50Z</time>
      </trkpt>
      <trkpt lat="43.53619" lon="5.50674">
        <ele>295.44</ele>
        <time>2018-12-22T09:11:56Z</time>
      </trkpt>
      <trkpt lat="43.53632" lon="5.50695">
        <ele>297.99</ele>
        <time>2018-12-22T09:12:02Z</time>
      </trkpt>
      <trkpt lat="43.53645" lon="5.50716">
        <ele>297.73</ele>
        <time>2018-12-22T09:12:07Z</time>
      </trkpt>
      <trkpt lat="43.53658" lon="5.50733">
        <ele>296.61</ele>
        <time>2018-12-22T09:12:11Z</time>
      </trkpt>
      <trkpt lat="43.53674" lon="5.50748">
        <ele>295.62</ele>
        <time>2018-12-22T09:12:15Z</time>
      </trkpt>
      <trkpt lat="43.53688" lon="5.50763">
        <ele>295.05</ele>
        <time>2018-12-22T09:12:19Z</time>
      </trkpt>
      <trkpt lat="43.53699" lon="5.50786">
        <ele>295.14</ele>
        <time>2018-12-22T09:12:24Z</time>
      </trkpt>
      <trkpt lat="43.53707" lon="5.50812">
        <ele>294.85</ele>
        <time>2018-12-22T09:12:29Z</time>
      </trkpt>
      <trkpt lat="43.5371" lon="5.50837">
        <ele>294.65</ele>
        <time>2018-12-22T09:12:34Z</time>
      </trkpt>
      <trkpt lat="43.53709" lon="5.50863">
        <ele>295.79</ele>
        <time>2018-12-22T09:12:40Z</time>
      </trkpt>
      <trkpt lat="43.53706" lon="5.50889">
        <ele>297.33</ele>
        <time>2018-12-22T09:12:46Z</time>
      </trkpt>
      <trkpt lat="43.53703" lon="5.50917">
        <ele>298.74</ele>
        <time>2018-12-22T09:12:53Z</time>
      </trkpt>
      <trkpt lat="43.53693" lon="5.5094">
        <ele>300.92</ele>
        <time>2018-12-22T09:12:59Z</time>
      </trkpt>
      <trkpt lat="43.53695" lon="5.50965">
        <ele>304.74</ele>
        <time>2018-12-22T09:13:06Z</time>
      </trkpt>
      <trkpt lat="43.537" lon="5.50992">
        <ele>307.12</ele>
        <time>2018-12-22T09:13:12Z</time>
      </trkpt>
      <trkpt lat="43.53709" lon="5.51016">
        <ele>306.9</ele>
        <time>2018-12-22T09:13:18Z</time>
      </trkpt>
      <trkpt lat="43.53712" lon="5.51041">
        <ele>303.34</ele>
        <time>2018-12-22T09:13:38Z</time>
      </trkpt>
      <trkpt lat="43.53708" lon="5.51067">
        <ele>301.72</ele>
        <time>2018-12-22T09:13:58Z</time>
      </trkpt>
      <trkpt lat="43.53697" lon="5.51087">
        <ele>300.08</ele>
        <time>2018-12-22T09:14:06Z</time>
      </trkpt>
      <trkpt lat="43.53679" lon="5.51082">
        <ele>294.84</ele>
        <time>2018-12-22T09:14:26Z</time>
      </trkpt>
      <trkpt lat="43.53662" lon="5.51069">
        <ele>282.02</ele>
        <time>2018-12-22T09:14:46Z</time>
      </trkpt>
      <trkpt lat="43.53644" lon="5.51064">
        <ele>278.8</ele>
        <time>2018-12-22T09:14:58Z</time>
      </trkpt>
      <trkpt lat="43.53624" lon="5.51063">
        <ele>276.11</ele>
        <time>2018-12-22T09:15:11Z</time>
      </trkpt>
      <trkpt lat="43.53606" lon="5.51068">
        <ele>272.45</ele>
        <time>2018-12-22T09:15:19Z</time>
      </trkpt>
      <trkpt lat="43.5359" lon="5.51079">
        <ele>269.55</ele>
        <time>2018-12-22T09:15:27Z</time>
      </trkpt>
      <trkpt lat="43.53574" lon="5.51091">
        <ele>265.59</ele>
        <time>2018-12-22T09:15:42Z</time>
      </trkpt>
      <trkpt lat="43.53559" lon="5.51108">
        <ele>263.48</ele>
        <time>2018-12-22T09:15:51Z</time>
      </trkpt>
      <trkpt lat="43.53546" lon="5.5113">
        <ele>261.6</ele>
        <time>2018-12-22T09:15:58Z</time>
      </trkpt>
      <trkpt lat="43.53531" lon="5.51147">
        <ele>253.8</ele>
        <time>2018-12-22T09:17:07Z</time>
      </trkpt>
      <trkpt lat="43.53521" lon="5.51173">
        <ele>252.72</ele>
        <time>2018-12-22T09:17:13Z</time>
      </trkpt>
      <trkpt lat="43.53507" lon="5.51195">
        <ele>250.94</ele>
        <time>2018-12-22T09:17:18Z</time>
      </trkpt>
      <trkpt lat="43.53501" lon="5.5122">
        <ele>248.44</ele>
        <time>2018-12-22T09:17:25Z</time>
      </trkpt>
      <trkpt lat="43.5351" lon="5.51242">
        <ele>246.16</ele>
        <time>2018-12-22T09:17:30Z</time>
      </trkpt>
      <trkpt lat="43.535" lon="5.5127">
        <ele>244.24</ele>
        <time>2018-12-22T09:17:35Z</time>
      </trkpt>
      <trkpt lat="43.53485" lon="5.51286">
        <ele>242.59</ele>
        <time>2018-12-22T09:17:39Z</time>
      </trkpt>
      <trkpt lat="43.53467" lon="5.51279">
        <ele>238.36</ele>
        <time>2018-12-22T09:17:44Z</time>
      </trkpt>
      <trkpt lat="43.53451" lon="5.51264">
        <ele>235.32</ele>
        <time>2018-12-22T09:17:50Z</time>
      </trkpt>
      <trkpt lat="43.53438" lon="5.5124">
        <ele>233.37</ele>
        <time>2018-12-22T09:17:55Z</time>
      </trkpt>
      <trkpt lat="43.53418" lon="5.51248">
        <ele>232.03</ele>
        <time>2018-12-22T09:18:02Z</time>
      </trkpt>
      <trkpt lat="43.5341" lon="5.51271">
        <ele>230.5</ele>
        <time>2018-12-22T09:18:07Z</time>
      </trkpt>
      <trkpt lat="43.53394" lon="5.51285">
        <ele>228.55</ele>
        <time>2018-12-22T09:18:12Z</time>
      </trkpt>
      <trkpt lat="43.53376" lon="5.5129">
        <ele>227.48</ele>
        <time>2018-12-22T09:18:16Z</time>
      </trkpt>
      <trkpt lat="43.53354" lon="5.51297">
        <ele>226.26</ele>
        <time>2018-12-22T09:18:20Z</time>
      </trkpt>
      <trkpt lat="43.53336" lon="5.51297">
        <ele>225.34</ele>
        <time>2018-12-22T09:18:23Z</time>
      </trkpt>
      <trkpt lat="43.53316" lon="5.51297">
        <ele>224.5</ele>
        <time>2018-12-22T09:18:27Z</time>
      </trkpt>
      <trkpt lat="43.53296" lon="5.513">
        <ele>215.37</ele>
        <time>2018-12-22T09:19:51Z</time>
      </trkpt>
      <trkpt lat="43.53284" lon="5.51278">
        <ele>212.22</ele>
        <time>2018-12-22T09:19:59Z</time>
      </trkpt>
      <trkpt lat="43.53292" lon="5.51252">
        <ele>209.53</ele>
        <time>2018-12-22T09:20:07Z</time>
      </trkpt>
      <trkpt lat="43.533" lon="5.51229">
        <ele>205.69</ele>
        <time>2018-12-22T09:20:14Z</time>
      </trkpt>
      <trkpt lat="43.53306" lon="5.51205">
        <ele>200.81</ele>
        <time>2018-12-22T09:20:21Z</time>
      </trkpt>
      <trkpt lat="43.53313" lon="5.5118">
        <ele>194.61</ele>
        <time>2018-12-22T09:20:29Z</time>
      </trkpt>
      <trkpt lat="43.53293" lon="5.51181">
        <ele>194.42</ele>
        <time>2018-12-22T09:20:40Z</time>
      </trkpt>
      <trkpt lat="43.53278" lon="5.51167">
        <ele>196.36</ele>
        <time>2018-12-22T09:20:46Z</time>
      </trkpt>
      <trkpt lat="43.53263" lon="5.51147">
        <ele>196.31</ele>
        <time>2018-12-22T09:20:51Z</time>
      </trkpt>
      <trkpt lat="43.53246" lon="5.51137">
        <ele>195.87</ele>
        <time>2018-12-22T09:20:59Z</time>
      </trkpt>
      <trkpt lat="43.53226" lon="5.51137">
        <ele>195.14</ele>
        <time>2018-12-22T09:21:41Z</time>
      </trkpt>
      <trkpt lat="43.53208" lon="5.51127">
        <ele>193.95</ele>
        <time>2018-12-22T09:21:49Z</time>
      </trkpt>
      <trkpt lat="43.53198" lon="5.51102">
        <ele>190.83</ele>
        <time>2018-12-22T09:22:32Z</time>
      </trkpt>
      <trkpt lat="43.53189" lon="5.5108">
        <ele>193.77</ele>
        <time>2018-12-22T09:22:54Z</time>
      </trkpt>
      <trkpt lat="43.53171" lon="5.51079">
        <ele>196.58</ele>
        <time>2018-12-22T09:23:11Z</time>
      </trkpt>
      <trkpt lat="43.53159" lon="5.51098">
        <ele>200.79</ele>
        <time>2018-12-22T09:23:50Z</time>
      </trkpt>
      <trkpt lat="43.53147" lon="5.51118">
        <ele>202.72</ele>
        <time>2018-12-22T09:24:03Z</time>
      </trkpt>
      <trkpt lat="43.53141" lon="5.51143">
        <ele>206.37</ele>
        <time>2018-12-22T09:24:16Z</time>
      </trkpt>
      <trkpt lat="43.53147" lon="5.51166">
        <ele>211.84</ele>
        <time>2018-12-22T09:24:29Z</time>
      </trkpt>
      <trkpt lat="43.53148" lon="5.51192">
        <ele>217.35</ele>
        <time>2018-12-22T09:24:42Z</time>
      </trkpt>
      <trkpt lat="43.5314" lon="5.51215">
        <ele>219.5</ele>
        <time>2018-12-22T09:24:54Z</time>
      </trkpt>
      <trkpt lat="43.53138" lon="5.5124">
        <ele>221.4</ele>
        <time>2018-12-22T09:25:07Z</time>
      </trkpt>
      <trkpt lat="43.53134" lon="5.51264">
        <ele>223.52</ele>
        <time>2018-12-22T09:25:20Z</time>
      </trkpt>
      <trkpt lat="43.53128" lon="5.51289">
        <ele>224.82</ele>
        <time>2018-12-22T09:25:33Z</time>
      </trkpt>
      <trkpt lat="43.53125" lon="5.51314">
        <ele>228.83</ele>
        <time>2018-12-22T09:25:45Z</time>
      </trkpt>
      <trkpt lat="43.53119" lon="5.51339">
        <ele>233.42</ele>
        <time>2018-12-22T09:25:58Z</time>
      </trkpt>
      <trkpt lat="43.53113" lon="5.51364">
        <ele>236.67</ele>
        <time>2018-12-22T09:26:10Z</time>
      </trkpt>
      <trkpt lat="43.53096" lon="5.51373">
        <ele>235.37</ele>
        <time>2018-12-22T09:26:26Z</time>
      </trkpt>
      <trkpt lat="43.53075" lon="5.51374">
        <ele>233.25</ele>
        <time>2018-12-22T09:26:35Z</time>
      </trkpt>
      <trkpt lat="43.53055" lon="5.51372">
        <ele>229.87</ele>
        <time>2018-12-22T09:26:40Z</time>
      </trkpt>
      <trkpt lat="43.53033" lon="5.51371">
        <ele>227</ele>
        <time>2018-12-22T09:26:44Z</time>
      </trkpt>
      <trkpt lat="43.53011" lon="5.51376">
        <ele>223.82</ele>
        <time>2018-12-22T09:26:49Z</time>
      </trkpt>
      <trkpt lat="43.52989" lon="5.51389">
        <ele>220.91</ele>
        <time>2018-12-22T09:26:53Z</time>
      </trkpt>
      <trkpt lat="43.52968" lon="5.51393">
        <ele>219.33</ele>
        <time>2018-12-22T09:26:56Z</time>
      </trkpt>
      <trkpt lat="43.52949" lon="5.51398">
        <ele>219.62</ele>
        <time>2018-12-22T09:26:59Z</time>
      </trkpt>
      <trkpt lat="43.52927" lon="5.51403">
        <ele>219.63</ele>
        <time>2018-12-22T09:27:04Z</time>
      </trkpt>
      <trkpt lat="43.52908" lon="5.51409">
        <ele>221.37</ele>
        <time>2018-12-22T09:27:11Z</time>
      </trkpt>
      <trkpt lat="43.52892" lon="5.51422">
        <ele>224.24</ele>
        <time>2018-12-22T09:27:18Z</time>
      </trkpt>
      <trkpt lat="43.52875" lon="5.51437">
        <ele>227.12</ele>
        <time>2018-12-22T09:27:29Z</time>
      </trkpt>
      <trkpt lat="43.52856" lon="5.51437">
        <ele>231.3</ele>
        <time>2018-12-22T09:27:41Z</time>
      </trkpt>
      <trkpt lat="43.52838" lon="5.5144">
        <ele>234.09</ele>
        <time>2018-12-22T09:27:51Z</time>
      </trkpt>
      <trkpt lat="43.52819" lon="5.51442">
        <ele>235.4</ele>
        <time>2018-12-22T09:28:01Z</time>
      </trkpt>
      <trkpt lat="43.52801" lon="5.51447">
        <ele>238.67</ele>
        <time>2018-12-22T09:28:12Z</time>
      </trkpt>
      <trkpt lat="43.52784" lon="5.51458">
        <ele>240.7</ele>
        <time>2018-12-22T09:28:22Z</time>
      </trkpt>
      <trkpt lat="43.52767" lon="5.51467">
        <ele>241.37</ele>
        <time>2018-12-22T09:28:33Z</time>
      </trkpt>
      <trkpt lat="43.5275" lon="5.51478">
        <ele>242.68</ele>
        <time>2018-12-22T09:28:45Z</time>
      </trkpt>
      <trkpt lat="43.52736" lon="5.51494">
        <ele>247.84</ele>
        <time>2018-12-22T09:28:58Z</time>
      </trkpt>
      <trkpt lat="43.52731" lon="5.51521">
        <ele>251.85</ele>
        <time>2018-12-22T09:29:09Z</time>
      </trkpt>
      <trkpt lat="43.52731" lon="5.51546">
        <ele>257.42</ele>
        <time>2018-12-22T09:29:22Z</time>
      </trkpt>
      <trkpt lat="43.52727" lon="5.51571">
        <ele>262.33</ele>
        <time>2018-12-22T09:29:35Z</time>
      </trkpt>
      <trkpt lat="43.52726" lon="5.51596">
        <ele>265.67</ele>
        <time>2018-12-22T09:29:46Z</time>
      </trkpt>
      <trkpt lat="43.52726" lon="5.51623">
        <ele>269.47</ele>
        <time>2018-12-22T09:29:59Z</time>
      </trkpt>
      <trkpt lat="43.52728" lon="5.51649">
        <ele>273.25</ele>
        <time>2018-12-22T09:30:11Z</time>
      </trkpt>
      <trkpt lat="43.52726" lon="5.51674">
        <ele>274.32</ele>
        <time>2018-12-22T09:30:23Z</time>
      </trkpt>
      <trkpt lat="43.52728" lon="5.517">
        <ele>270.36</ele>
        <time>2018-12-22T09:30:35Z</time>
      </trkpt>
      <trkpt lat="43.52724" lon="5.51726">
        <ele>270.62</ele>
        <time>2018-12-22T09:30:47Z</time>
      </trkpt>
      <trkpt lat="43.52722" lon="5.5175">
        <ele>270.69</ele>
        <time>2018-12-22T09:30:57Z</time>
      </trkpt>
      <trkpt lat="43.52717" lon="5.51775">
        <ele>272.19</ele>
        <time>2018-12-22T09:31:06Z</time>
      </trkpt>
      <trkpt lat="43.52714" lon="5.51803">
        <ele>272.65</ele>
        <time>2018-12-22T09:31:15Z</time>
      </trkpt>
      <trkpt lat="43.52714" lon="5.51828">
        <ele>274.52</ele>
        <time>2018-12-22T09:31:24Z</time>
      </trkpt>
      <trkpt lat="43.52711" lon="5.51853">
        <ele>275.07</ele>
        <time>2018-12-22T09:31:33Z</time>
      </trkpt>
      <trkpt lat="43.52702" lon="5.51877">
        <ele>273.39</ele>
        <time>2018-12-22T09:31:42Z</time>
      </trkpt>
      <trkpt lat="43.52694" lon="5.51902">
        <ele>273.51</ele>
        <time>2018-12-22T09:31:50Z</time>
      </trkpt>
      <trkpt lat="43.52688" lon="5.51929">
        <ele>275.09</ele>
        <time>2018-12-22T09:31:58Z</time>
      </trkpt>
      <trkpt lat="43.52688" lon="5.51955">
        <ele>275.04</ele>
        <time>2018-12-22T09:32:04Z</time>
      </trkpt>
      <trkpt lat="43.52689" lon="5.51983">
        <ele>278.02</ele>
        <time>2018-12-22T09:32:11Z</time>
      </trkpt>
      <trkpt lat="43.52689" lon="5.52009">
        <ele>282.27</ele>
        <time>2018-12-22T09:32:18Z</time>
      </trkpt>
      <trkpt lat="43.52691" lon="5.52036">
        <ele>284.57</ele>
        <time>2018-12-22T09:32:25Z</time>
      </trkpt>
      <trkpt lat="43.52691" lon="5.52063">
        <ele>285.28</ele>
        <time>2018-12-22T09:32:32Z</time>
      </trkpt>
      <trkpt lat="43.52692" lon="5.52089">
        <ele>287.78</ele>
        <time>2018-12-22T09:32:38Z</time>
      </trkpt>
      <trkpt lat="43.52693" lon="5.52115">
        <ele>290.79</ele>
        <time>2018-12-22T09:32:43Z</time>
      </trkpt>
      <trkpt lat="43.52698" lon="5.52141">
        <ele>292.81</ele>
        <time>2018-12-22T09:32:48Z</time>
      </trkpt>
      <trkpt lat="43.52703" lon="5.52169">
        <ele>293.56</ele>
        <time>2018-12-22T09:32:54Z</time>
      </trkpt>
      <trkpt lat="43.52709" lon="5.52197">
        <ele>290.46</ele>
        <time>2018-12-22T09:32:59Z</time>
      </trkpt>
      <trkpt lat="43.52714" lon="5.52222">
        <ele>287.58</ele>
        <time>2018-12-22T09:33:04Z</time>
      </trkpt>
      <trkpt lat="43.52724" lon="5.52248">
        <ele>283.8</ele>
        <time>2018-12-22T09:33:10Z</time>
      </trkpt>
      <trkpt lat="43.52739" lon="5.52273">
        <ele>278.4</ele>
        <time>2018-12-22T09:33:14Z</time>
      </trkpt>
      <trkpt lat="43.52755" lon="5.52294">
        <ele>276.03</ele>
        <time>2018-12-22T09:33:17Z</time>
      </trkpt>
      <trkpt lat="43.52772" lon="5.5231">
        <ele>273.59</ele>
        <time>2018-12-22T09:33:20Z</time>
      </trkpt>
      <trkpt lat="43.52787" lon="5.5233">
        <ele>271.75</ele>
        <time>2018-12-22T09:33:23Z</time>
      </trkpt>
      <trkpt lat="43.52797" lon="5.52357">
        <ele>270.45</ele>
        <time>2018-12-22T09:33:26Z</time>
      </trkpt>
      <trkpt lat="43.52803" lon="5.52384">
        <ele>269.27</ele>
        <time>2018-12-22T09:33:29Z</time>
      </trkpt>
      <trkpt lat="43.52817" lon="5.52405">
        <ele>267.42</ele>
        <time>2018-12-22T09:33:32Z</time>
      </trkpt>
      <trkpt lat="43.52827" lon="5.52427">
        <ele>266.15</ele>
        <time>2018-12-22T09:33:35Z</time>
      </trkpt>
      <trkpt lat="43.52823" lon="5.52457">
        <ele>266.15</ele>
        <time>2018-12-22T09:33:39Z</time>
      </trkpt>
      <trkpt lat="43.52839" lon="5.52474">
        <ele>269.53</ele>
        <time>2018-12-22T09:33:47Z</time>
      </trkpt>
      <trkpt lat="43.52855" lon="5.52487">
        <ele>270.58</ele>
        <time>2018-12-22T09:33:55Z</time>
      </trkpt>
      <trkpt lat="43.52869" lon="5.52507">
        <ele>271.63</ele>
        <time>2018-12-22T09:34:03Z</time>
      </trkpt>
      <trkpt lat="43.52883" lon="5.52527">
        <ele>271.91</ele>
        <time>2018-12-22T09:34:11Z</time>
      </trkpt>
      <trkpt lat="43.52895" lon="5.52548">
        <ele>272.72</ele>
        <time>2018-12-22T09:34:20Z</time>
      </trkpt>
      <trkpt lat="43.52907" lon="5.52568">
        <ele>273.75</ele>
        <time>2018-12-22T09:34:30Z</time>
      </trkpt>
      <trkpt lat="43.52922" lon="5.52584">
        <ele>272.51</ele>
        <time>2018-12-22T09:34:40Z</time>
      </trkpt>
      <trkpt lat="43.52938" lon="5.52596">
        <ele>274.22</ele>
        <time>2018-12-22T09:34:51Z</time>
      </trkpt>
      <trkpt lat="43.52956" lon="5.52603">
        <ele>276.6</ele>
        <time>2018-12-22T09:35:02Z</time>
      </trkpt>
      <trkpt lat="43.52973" lon="5.52615">
        <ele>279.12</ele>
        <time>2018-12-22T09:35:15Z</time>
      </trkpt>
      <trkpt lat="43.5299" lon="5.52621">
        <ele>279.74</ele>
        <time>2018-12-22T09:35:28Z</time>
      </trkpt>
      <trkpt lat="43.53" lon="5.52644">
        <ele>281.35</ele>
        <time>2018-12-22T09:35:41Z</time>
      </trkpt>
      <trkpt lat="43.52992" lon="5.52668">
        <ele>285.6</ele>
        <time>2018-12-22T09:35:56Z</time>
      </trkpt>
      <trkpt lat="43.52979" lon="5.52686">
        <ele>289.69</ele>
        <time>2018-12-22T09:36:09Z</time>
      </trkpt>
      <trkpt lat="43.52969" lon="5.52708">
        <ele>292.88</ele>
        <time>2018-12-22T09:36:22Z</time>
      </trkpt>
      <trkpt lat="43.5296" lon="5.5273">
        <ele>296.38</ele>
        <time>2018-12-22T09:36:36Z</time>
      </trkpt>
      <trkpt lat="43.52952" lon="5.52754">
        <ele>300.27</ele>
        <time>2018-12-22T09:36:51Z</time>
      </trkpt>
      <trkpt lat="43.5295" lon="5.52779">
        <ele>304.17</ele>
        <time>2018-12-22T09:37:06Z</time>
      </trkpt>
      <trkpt lat="43.52966" lon="5.52794">
        <ele>307.42</ele>
        <time>2018-12-22T09:37:19Z</time>
      </trkpt>
      <trkpt lat="43.52981" lon="5.52809">
        <ele>308.62</ele>
        <time>2018-12-22T09:37:30Z</time>
      </trkpt>
      <trkpt lat="43.52997" lon="5.52822">
        <ele>309.66</ele>
        <time>2018-12-22T09:37:40Z</time>
      </trkpt>
      <trkpt lat="43.53013" lon="5.52836">
        <ele>309.84</ele>
        <time>2018-12-22T09:37:50Z</time>
      </trkpt>
      <trkpt lat="43.53027" lon="5.52853">
        <ele>309.95</ele>
        <time>2018-12-22T09:38:00Z</time>
      </trkpt>
      <trkpt lat="43.53042" lon="5.52869">
        <ele>309.85</ele>
        <time>2018-12-22T09:38:09Z</time>
      </trkpt>
      <trkpt lat="43.53055" lon="5.52886">
        <ele>309.47</ele>
        <time>2018-12-22T09:38:16Z</time>
      </trkpt>
      <trkpt lat="43.53066" lon="5.52907">
        <ele>308.87</ele>
        <time>2018-12-22T09:38:23Z</time>
      </trkpt>
      <trkpt lat="43.53077" lon="5.52929">
        <ele>307.69</ele>
        <time>2018-12-22T09:38:30Z</time>
      </trkpt>
      <trkpt lat="43.53088" lon="5.5295">
        <ele>306.9</ele>
        <time>2018-12-22T09:38:36Z</time>
      </trkpt>
      <trkpt lat="43.531" lon="5.52973">
        <ele>305.52</ele>
        <time>2018-12-22T09:38:41Z</time>
      </trkpt>
      <trkpt lat="43.53112" lon="5.52995">
        <ele>303.98</ele>
        <time>2018-12-22T09:38:45Z</time>
      </trkpt>
      <trkpt lat="43.53121" lon="5.53026">
        <ele>302.17</ele>
        <time>2018-12-22T09:38:49Z</time>
      </trkpt>
      <trkpt lat="43.53126" lon="5.53052">
        <ele>301.16</ele>
        <time>2018-12-22T09:38:52Z</time>
      </trkpt>
      <trkpt lat="43.53133" lon="5.53081">
        <ele>299.99</ele>
        <time>2018-12-22T09:38:55Z</time>
      </trkpt>
      <trkpt lat="43.53145" lon="5.5311">
        <ele>298.55</ele>
        <time>2018-12-22T09:38:58Z</time>
      </trkpt>
      <trkpt lat="43.5316" lon="5.53131">
        <ele>297.8</ele>
        <time>2018-12-22T09:39:01Z</time>
      </trkpt>
      <trkpt lat="43.53177" lon="5.53145">
        <ele>298.09</ele>
        <time>2018-12-22T09:39:04Z</time>
      </trkpt>
      <trkpt lat="43.53197" lon="5.53157">
        <ele>299.94</ele>
        <time>2018-12-22T09:39:08Z</time>
      </trkpt>
      <trkpt lat="43.53216" lon="5.53165">
        <ele>302.04</ele>
        <time>2018-12-22T09:39:13Z</time>
      </trkpt>
      <trkpt lat="43.53232" lon="5.53176">
        <ele>304.22</ele>
        <time>2018-12-22T09:39:19Z</time>
      </trkpt>
      <trkpt lat="43.5325" lon="5.53186">
        <ele>306.98</ele>
        <time>2018-12-22T09:39:30Z</time>
      </trkpt>
      <trkpt lat="43.53268" lon="5.53196">
        <ele>310</ele>
        <time>2018-12-22T09:39:43Z</time>
      </trkpt>
      <trkpt lat="43.53285" lon="5.53206">
        <ele>311.7</ele>
        <time>2018-12-22T09:39:55Z</time>
      </trkpt>
      <trkpt lat="43.53302" lon="5.53219">
        <ele>314</ele>
        <time>2018-12-22T09:40:07Z</time>
      </trkpt>
      <trkpt lat="43.53318" lon="5.53229">
        <ele>315.23</ele>
        <time>2018-12-22T09:40:17Z</time>
      </trkpt>
      <trkpt lat="43.53336" lon="5.5324">
        <ele>315.45</ele>
        <time>2018-12-22T09:40:27Z</time>
      </trkpt>
      <trkpt lat="43.53354" lon="5.53249">
        <ele>314.87</ele>
        <time>2018-12-22T09:40:38Z</time>
      </trkpt>
      <trkpt lat="43.5337" lon="5.53261">
        <ele>313.62</ele>
        <time>2018-12-22T09:40:44Z</time>
      </trkpt>
      <trkpt lat="43.53388" lon="5.53276">
        <ele>311.79</ele>
        <time>2018-12-22T09:40:48Z</time>
      </trkpt>
      <trkpt lat="43.53403" lon="5.53294">
        <ele>310.41</ele>
        <time>2018-12-22T09:40:51Z</time>
      </trkpt>
      <trkpt lat="43.53422" lon="5.53315">
        <ele>309.7</ele>
        <time>2018-12-22T09:40:54Z</time>
      </trkpt>
      <trkpt lat="43.53442" lon="5.53334">
        <ele>309.9</ele>
        <time>2018-12-22T09:40:57Z</time>
      </trkpt>
      <trkpt lat="43.53459" lon="5.53352">
        <ele>311.24</ele>
        <time>2018-12-22T09:41:00Z</time>
      </trkpt>
      <trkpt lat="43.53474" lon="5.53369">
        <ele>313.56</ele>
        <time>2018-12-22T09:41:04Z</time>
      </trkpt>
      <trkpt lat="43.53487" lon="5.53388">
        <ele>316.17</ele>
        <time>2018-12-22T09:41:12Z</time>
      </trkpt>
      <trkpt lat="43.53499" lon="5.53408">
        <ele>317.82</ele>
        <time>2018-12-22T09:41:21Z</time>
      </trkpt>
      <trkpt lat="43.53507" lon="5.53432">
        <ele>317.91</ele>
        <time>2018-12-22T09:41:29Z</time>
      </trkpt>
      <trkpt lat="43.53508" lon="5.53458">
        <ele>318.5</ele>
        <time>2018-12-22T09:41:36Z</time>
      </trkpt>
      <trkpt lat="43.53508" lon="5.53487">
        <ele>319.58</ele>
        <time>2018-12-22T09:41:43Z</time>
      </trkpt>
      <trkpt lat="43.53508" lon="5.53513">
        <ele>321.13</ele>
        <time>2018-12-22T09:41:50Z</time>
      </trkpt>
      <trkpt lat="43.53518" lon="5.53539">
        <ele>322.21</ele>
        <time>2018-12-22T09:41:56Z</time>
      </trkpt>
      <trkpt lat="43.53529" lon="5.53562">
        <ele>321.19</ele>
        <time>2018-12-22T09:42:01Z</time>
      </trkpt>
      <trkpt lat="43.53545" lon="5.53582">
        <ele>319.69</ele>
        <time>2018-12-22T09:42:07Z</time>
      </trkpt>
      <trkpt lat="43.53548" lon="5.5361">
        <ele>319.33</ele>
        <time>2018-12-22T09:42:14Z</time>
      </trkpt>
      <trkpt lat="43.53551" lon="5.53638">
        <ele>319.92</ele>
        <time>2018-12-22T09:42:21Z</time>
      </trkpt>
      <trkpt lat="43.53556" lon="5.53664">
        <ele>319.59</ele>
        <time>2018-12-22T09:42:29Z</time>
      </trkpt>
      <trkpt lat="43.53549" lon="5.53687">
        <ele>318.86</ele>
        <time>2018-12-22T09:42:38Z</time>
      </trkpt>
      <trkpt lat="43.53536" lon="5.53704">
        <ele>318.24</ele>
        <time>2018-12-22T09:42:46Z</time>
      </trkpt>
      <trkpt lat="43.53537" lon="5.53729">
        <ele>318.59</ele>
        <time>2018-12-22T09:43:10Z</time>
      </trkpt>
      <trkpt lat="43.53525" lon="5.5375">
        <ele>313.15</ele>
        <time>2018-12-22T10:19:24Z</time>
      </trkpt>
      <trkpt lat="43.53508" lon="5.53764">
        <ele>313.5</ele>
        <time>2018-12-22T10:19:33Z</time>
      </trkpt>
      <trkpt lat="43.53498" lon="5.53786">
        <ele>314.63</ele>
        <time>2018-12-22T10:19:41Z</time>
      </trkpt>
      <trkpt lat="43.53492" lon="5.53811">
        <ele>315.24</ele>
        <time>2018-12-22T10:19:49Z</time>
      </trkpt>
      <trkpt lat="43.5349" lon="5.53836">
        <ele>315.13</ele>
        <time>2018-12-22T10:19:58Z</time>
      </trkpt>
      <trkpt lat="43.53488" lon="5.53861">
        <ele>315.35</ele>
        <time>2018-12-22T10:20:07Z</time>
      </trkpt>
      <trkpt lat="43.53488" lon="5.53886">
        <ele>315.26</ele>
        <time>2018-12-22T10:20:15Z</time>
      </trkpt>
      <trkpt lat="43.5349" lon="5.53913">
        <ele>315.27</ele>
        <time>2018-12-22T10:20:23Z</time>
      </trkpt>
      <trkpt lat="43.53489" lon="5.53939">
        <ele>315.45</ele>
        <time>2018-12-22T10:20:31Z</time>
      </trkpt>
      <trkpt lat="43.53488" lon="5.53964">
        <ele>317.12</ele>
        <time>2018-12-22T10:20:40Z</time>
      </trkpt>
      <trkpt lat="43.53484" lon="5.5399">
        <ele>318.64</ele>
        <time>2018-12-22T10:20:50Z</time>
      </trkpt>
      <trkpt lat="43.5348" lon="5.54014">
        <ele>320.9</ele>
        <time>2018-12-22T10:21:01Z</time>
      </trkpt>
      <trkpt lat="43.53461" lon="5.54026">
        <ele>323.66</ele>
        <time>2018-12-22T10:21:11Z</time>
      </trkpt>
      <trkpt lat="43.5345" lon="5.54049">
        <ele>324.65</ele>
        <time>2018-12-22T10:21:17Z</time>
      </trkpt>
      <trkpt lat="43.53439" lon="5.54075">
        <ele>324.05</ele>
        <time>2018-12-22T10:21:23Z</time>
      </trkpt>
      <trkpt lat="43.53427" lon="5.54095">
        <ele>323.35</ele>
        <time>2018-12-22T10:21:28Z</time>
      </trkpt>
      <trkpt lat="43.53412" lon="5.54109">
        <ele>322.06</ele>
        <time>2018-12-22T10:21:34Z</time>
      </trkpt>
      <trkpt lat="43.53399" lon="5.54126">
        <ele>321.51</ele>
        <time>2018-12-22T10:21:43Z</time>
      </trkpt>
      <trkpt lat="43.53378" lon="5.54118">
        <ele>320.59</ele>
        <time>2018-12-22T10:21:51Z</time>
      </trkpt>
      <trkpt lat="43.53362" lon="5.54135">
        <ele>318.64</ele>
        <time>2018-12-22T10:21:56Z</time>
      </trkpt>
      <trkpt lat="43.53359" lon="5.54163">
        <ele>314.75</ele>
        <time>2018-12-22T10:22:02Z</time>
      </trkpt>
      <trkpt lat="43.53351" lon="5.54192">
        <ele>312.84</ele>
        <time>2018-12-22T10:22:07Z</time>
      </trkpt>
      <trkpt lat="43.53332" lon="5.54204">
        <ele>311.22</ele>
        <time>2018-12-22T10:22:10Z</time>
      </trkpt>
      <trkpt lat="43.53311" lon="5.54211">
        <ele>308.83</ele>
        <time>2018-12-22T10:22:13Z</time>
      </trkpt>
      <trkpt lat="43.53305" lon="5.54235">
        <ele>306.31</ele>
        <time>2018-12-22T10:22:21Z</time>
      </trkpt>
      <trkpt lat="43.53297" lon="5.54258">
        <ele>303.32</ele>
        <time>2018-12-22T10:22:29Z</time>
      </trkpt>
      <trkpt lat="43.53288" lon="5.54281">
        <ele>300.86</ele>
        <time>2018-12-22T10:22:34Z</time>
      </trkpt>
      <trkpt lat="43.53283" lon="5.54308">
        <ele>297.36</ele>
        <time>2018-12-22T10:22:42Z</time>
      </trkpt>
      <trkpt lat="43.53278" lon="5.54336">
        <ele>295.42</ele>
        <time>2018-12-22T10:22:49Z</time>
      </trkpt>
      <trkpt lat="43.53263" lon="5.5436">
        <ele>295.32</ele>
        <time>2018-12-22T10:22:54Z</time>
      </trkpt>
      <trkpt lat="43.53244" lon="5.54381">
        <ele>294.18</ele>
        <time>2018-12-22T10:22:58Z</time>
      </trkpt>
      <trkpt lat="43.5323" lon="5.54396">
        <ele>292.18</ele>
        <time>2018-12-22T10:23:01Z</time>
      </trkpt>
      <trkpt lat="43.53216" lon="5.54418">
        <ele>289.01</ele>
        <time>2018-12-22T10:23:05Z</time>
      </trkpt>
      <trkpt lat="43.532" lon="5.54434">
        <ele>284.08</ele>
        <time>2018-12-22T10:23:11Z</time>
      </trkpt>
      <trkpt lat="43.53186" lon="5.54452">
        <ele>282.55</ele>
        <time>2018-12-22T10:23:15Z</time>
      </trkpt>
      <trkpt lat="43.53178" lon="5.54475">
        <ele>281.08</ele>
        <time>2018-12-22T10:23:20Z</time>
      </trkpt>
      <trkpt lat="43.53177" lon="5.54503">
        <ele>278.66</ele>
        <time>2018-12-22T10:23:28Z</time>
      </trkpt>
      <trkpt lat="43.53176" lon="5.54528">
        <ele>277.7</ele>
        <time>2018-12-22T10:23:37Z</time>
      </trkpt>
      <trkpt lat="43.53173" lon="5.54556">
        <ele>276.28</ele>
        <time>2018-12-22T10:23:44Z</time>
      </trkpt>
      <trkpt lat="43.53173" lon="5.54583">
        <ele>276.85</ele>
        <time>2018-12-22T10:23:50Z</time>
      </trkpt>
      <trkpt lat="43.53179" lon="5.5461">
        <ele>277.15</ele>
        <time>2018-12-22T10:23:54Z</time>
      </trkpt>
      <trkpt lat="43.53176" lon="5.54635">
        <ele>276.4</ele>
        <time>2018-12-22T10:23:58Z</time>
      </trkpt>
      <trkpt lat="43.53174" lon="5.54663">
        <ele>277.24</ele>
        <time>2018-12-22T10:24:06Z</time>
      </trkpt>
      <trkpt lat="43.53183" lon="5.54687">
        <ele>275.27</ele>
        <time>2018-12-22T10:24:10Z</time>
      </trkpt>
      <trkpt lat="43.53185" lon="5.54718">
        <ele>273.51</ele>
        <time>2018-12-22T10:24:14Z</time>
      </trkpt>
      <trkpt lat="43.53173" lon="5.5474">
        <ele>270.79</ele>
        <time>2018-12-22T10:24:19Z</time>
      </trkpt>
      <trkpt lat="43.53176" lon="5.54767">
        <ele>267.56</ele>
        <time>2018-12-22T10:24:25Z</time>
      </trkpt>
      <trkpt lat="43.53192" lon="5.54778">
        <ele>262.75</ele>
        <time>2018-12-22T10:24:32Z</time>
      </trkpt>
      <trkpt lat="43.53187" lon="5.54803">
        <ele>257.14</ele>
        <time>2018-12-22T10:24:47Z</time>
      </trkpt>
      <trkpt lat="43.53166" lon="5.54804">
        <ele>255.55</ele>
        <time>2018-12-22T10:24:51Z</time>
      </trkpt>
      <trkpt lat="43.53144" lon="5.54807">
        <ele>253.38</ele>
        <time>2018-12-22T10:24:55Z</time>
      </trkpt>
      <trkpt lat="43.53127" lon="5.54815">
        <ele>251.89</ele>
        <time>2018-12-22T10:24:58Z</time>
      </trkpt>
      <trkpt lat="43.5311" lon="5.54823">
        <ele>250.47</ele>
        <time>2018-12-22T10:25:01Z</time>
      </trkpt>
      <trkpt lat="43.53091" lon="5.54831">
        <ele>247.61</ele>
        <time>2018-12-22T10:25:06Z</time>
      </trkpt>
      <trkpt lat="43.5307" lon="5.54836">
        <ele>244.91</ele>
        <time>2018-12-22T10:25:10Z</time>
      </trkpt>
      <trkpt lat="43.53054" lon="5.54855">
        <ele>243.91</ele>
        <time>2018-12-22T10:25:14Z</time>
      </trkpt>
      <trkpt lat="43.53042" lon="5.54873">
        <ele>242.94</ele>
        <time>2018-12-22T10:25:17Z</time>
      </trkpt>
      <trkpt lat="43.53022" lon="5.54889">
        <ele>240.41</ele>
        <time>2018-12-22T10:25:21Z</time>
      </trkpt>
      <trkpt lat="43.53011" lon="5.54917">
        <ele>237.19</ele>
        <time>2018-12-22T10:25:26Z</time>
      </trkpt>
      <trkpt lat="43.52996" lon="5.54936">
        <ele>232.93</ele>
        <time>2018-12-22T10:25:31Z</time>
      </trkpt>
      <trkpt lat="43.52977" lon="5.54941">
        <ele>227.91</ele>
        <time>2018-12-22T10:25:37Z</time>
      </trkpt>
      <trkpt lat="43.52957" lon="5.54947">
        <ele>223.54</ele>
        <time>2018-12-22T10:25:41Z</time>
      </trkpt>
      <trkpt lat="43.5294" lon="5.54962">
        <ele>220.24</ele>
        <time>2018-12-22T10:25:45Z</time>
      </trkpt>
      <trkpt lat="43.52925" lon="5.54944">
        <ele>217.72</ele>
        <time>2018-12-22T10:25:50Z</time>
      </trkpt>
      <trkpt lat="43.52907" lon="5.54933">
        <ele>217.1</ele>
        <time>2018-12-22T10:25:58Z</time>
      </trkpt>
      <trkpt lat="43.52893" lon="5.54916">
        <ele>215.15</ele>
        <time>2018-12-22T10:26:04Z</time>
      </trkpt>
      <trkpt lat="43.52878" lon="5.549">
        <ele>215.86</ele>
        <time>2018-12-22T10:26:11Z</time>
      </trkpt>
      <trkpt lat="43.52861" lon="5.54883">
        <ele>213.93</ele>
        <time>2018-12-22T10:26:17Z</time>
      </trkpt>
      <trkpt lat="43.52846" lon="5.54865">
        <ele>213.66</ele>
        <time>2018-12-22T10:26:22Z</time>
      </trkpt>
      <trkpt lat="43.52832" lon="5.54846">
        <ele>211.99</ele>
        <time>2018-12-22T10:26:26Z</time>
      </trkpt>
      <trkpt lat="43.5282" lon="5.54825">
        <ele>210.83</ele>
        <time>2018-12-22T10:26:30Z</time>
      </trkpt>
      <trkpt lat="43.52804" lon="5.54813">
        <ele>207.46</ele>
        <time>2018-12-22T10:26:36Z</time>
      </trkpt>
      <trkpt lat="43.52781" lon="5.54815">
        <ele>205.06</ele>
        <time>2018-12-22T10:26:43Z</time>
      </trkpt>
      <trkpt lat="43.52761" lon="5.54812">
        <ele>202.96</ele>
        <time>2018-12-22T10:26:50Z</time>
      </trkpt>
      <trkpt lat="43.52744" lon="5.5482">
        <ele>206.11</ele>
        <time>2018-12-22T10:27:41Z</time>
      </trkpt>
      <trkpt lat="43.52736" lon="5.54842">
        <ele>206.8</ele>
        <time>2018-12-22T10:27:48Z</time>
      </trkpt>
      <trkpt lat="43.52732" lon="5.54867">
        <ele>206.77</ele>
        <time>2018-12-22T10:27:56Z</time>
      </trkpt>
      <trkpt lat="43.52731" lon="5.54893">
        <ele>206.79</ele>
        <time>2018-12-22T10:28:05Z</time>
      </trkpt>
      <trkpt lat="43.52732" lon="5.54918">
        <ele>210.53</ele>
        <time>2018-12-22T10:28:17Z</time>
      </trkpt>
      <trkpt lat="43.52733" lon="5.54943">
        <ele>214.85</ele>
        <time>2018-12-22T10:28:27Z</time>
      </trkpt>
      <trkpt lat="43.52738" lon="5.54968">
        <ele>219.17</ele>
        <time>2018-12-22T10:28:41Z</time>
      </trkpt>
      <trkpt lat="43.52747" lon="5.54992">
        <ele>221.61</ele>
        <time>2018-12-22T10:28:55Z</time>
      </trkpt>
      <trkpt lat="43.52756" lon="5.55014">
        <ele>224.28</ele>
        <time>2018-12-22T10:29:09Z</time>
      </trkpt>
      <trkpt lat="43.52764" lon="5.55038">
        <ele>228.84</ele>
        <time>2018-12-22T10:29:24Z</time>
      </trkpt>
      <trkpt lat="43.52768" lon="5.55063">
        <ele>232.49</ele>
        <time>2018-12-22T10:29:36Z</time>
      </trkpt>
      <trkpt lat="43.52773" lon="5.55089">
        <ele>235.77</ele>
        <time>2018-12-22T10:29:49Z</time>
      </trkpt>
      <trkpt lat="43.52778" lon="5.55114">
        <ele>239</ele>
        <time>2018-12-22T10:30:02Z</time>
      </trkpt>
      <trkpt lat="43.52784" lon="5.55139">
        <ele>241.51</ele>
        <time>2018-12-22T10:30:16Z</time>
      </trkpt>
      <trkpt lat="43.5279" lon="5.55162">
        <ele>244.2</ele>
        <time>2018-12-22T10:30:29Z</time>
      </trkpt>
      <trkpt lat="43.52797" lon="5.55187">
        <ele>245.41</ele>
        <time>2018-12-22T10:30:42Z</time>
      </trkpt>
      <trkpt lat="43.52802" lon="5.55212">
        <ele>246.32</ele>
        <time>2018-12-22T10:30:56Z</time>
      </trkpt>
      <trkpt lat="43.52807" lon="5.55238">
        <ele>246.73</ele>
        <time>2018-12-22T10:31:10Z</time>
      </trkpt>
      <trkpt lat="43.5281" lon="5.55262">
        <ele>247.8</ele>
        <time>2018-12-22T10:31:22Z</time>
      </trkpt>
      <trkpt lat="43.52817" lon="5.55287">
        <ele>251.1</ele>
        <time>2018-12-22T10:31:35Z</time>
      </trkpt>
      <trkpt lat="43.52824" lon="5.55311">
        <ele>253.78</ele>
        <time>2018-12-22T10:31:48Z</time>
      </trkpt>
      <trkpt lat="43.52835" lon="5.55331">
        <ele>257.47</ele>
        <time>2018-12-22T10:32:02Z</time>
      </trkpt>
      <trkpt lat="43.52844" lon="5.55354">
        <ele>261.49</ele>
        <time>2018-12-22T10:32:17Z</time>
      </trkpt>
      <trkpt lat="43.5285" lon="5.55378">
        <ele>264.4</ele>
        <time>2018-12-22T10:32:30Z</time>
      </trkpt>
      <trkpt lat="43.52854" lon="5.55402">
        <ele>267.32</ele>
        <time>2018-12-22T10:32:42Z</time>
      </trkpt>
      <trkpt lat="43.52859" lon="5.55428">
        <ele>268.7</ele>
        <time>2018-12-22T10:32:54Z</time>
      </trkpt>
      <trkpt lat="43.52863" lon="5.55452">
        <ele>270.52</ele>
        <time>2018-12-22T10:33:06Z</time>
      </trkpt>
      <trkpt lat="43.52866" lon="5.55478">
        <ele>270.63</ele>
        <time>2018-12-22T10:33:17Z</time>
      </trkpt>
      <trkpt lat="43.52867" lon="5.55505">
        <ele>270.18</ele>
        <time>2018-12-22T10:33:26Z</time>
      </trkpt>
      <trkpt lat="43.52864" lon="5.55531">
        <ele>269.87</ele>
        <time>2018-12-22T10:33:34Z</time>
      </trkpt>
      <trkpt lat="43.52862" lon="5.55556">
        <ele>269.85</ele>
        <time>2018-12-22T10:33:41Z</time>
      </trkpt>
      <trkpt lat="43.52861" lon="5.55583">
        <ele>269.68</ele>
        <time>2018-12-22T10:33:49Z</time>
      </trkpt>
      <trkpt lat="43.52861" lon="5.55609">
        <ele>269.95</ele>
        <time>2018-12-22T10:33:58Z</time>
      </trkpt>
      <trkpt lat="43.52869" lon="5.55632">
        <ele>271.4</ele>
        <time>2018-12-22T10:34:08Z</time>
      </trkpt>
      <trkpt lat="43.52872" lon="5.55657">
        <ele>272.52</ele>
        <time>2018-12-22T10:34:17Z</time>
      </trkpt>
      <trkpt lat="43.52875" lon="5.55682">
        <ele>273.14</ele>
        <time>2018-12-22T10:34:26Z</time>
      </trkpt>
      <trkpt lat="43.5288" lon="5.55707">
        <ele>274.82</ele>
        <time>2018-12-22T10:34:37Z</time>
      </trkpt>
      <trkpt lat="43.52884" lon="5.55733">
        <ele>276.59</ele>
        <time>2018-12-22T10:34:48Z</time>
      </trkpt>
      <trkpt lat="43.52887" lon="5.55759">
        <ele>277.05</ele>
        <time>2018-12-22T10:34:58Z</time>
      </trkpt>
      <trkpt lat="43.52891" lon="5.55784">
        <ele>280.01</ele>
        <time>2018-12-22T10:35:11Z</time>
      </trkpt>
      <trkpt lat="43.52894" lon="5.5581">
        <ele>283.29</ele>
        <time>2018-12-22T10:35:22Z</time>
      </trkpt>
      <trkpt lat="43.52897" lon="5.55837">
        <ele>285.82</ele>
        <time>2018-12-22T10:35:34Z</time>
      </trkpt>
      <trkpt lat="43.529" lon="5.55864">
        <ele>286.45</ele>
        <time>2018-12-22T10:35:44Z</time>
      </trkpt>
      <trkpt lat="43.52901" lon="5.55889">
        <ele>287.2</ele>
        <time>2018-12-22T10:35:55Z</time>
      </trkpt>
      <trkpt lat="43.52904" lon="5.55914">
        <ele>289.03</ele>
        <time>2018-12-22T10:36:08Z</time>
      </trkpt>
      <trkpt lat="43.52912" lon="5.55937">
        <ele>293.87</ele>
        <time>2018-12-22T10:36:23Z</time>
      </trkpt>
      <trkpt lat="43.5292" lon="5.55961">
        <ele>298.05</ele>
        <time>2018-12-22T10:36:37Z</time>
      </trkpt>
      <trkpt lat="43.52927" lon="5.55984">
        <ele>302.1</ele>
        <time>2018-12-22T10:36:51Z</time>
      </trkpt>
      <trkpt lat="43.52933" lon="5.56007">
        <ele>302.8</ele>
        <time>2018-12-22T10:37:03Z</time>
      </trkpt>
      <trkpt lat="43.52935" lon="5.56032">
        <ele>304.52</ele>
        <time>2018-12-22T10:37:15Z</time>
      </trkpt>
      <trkpt lat="43.52916" lon="5.56033">
        <ele>304.25</ele>
        <time>2018-12-22T10:37:32Z</time>
      </trkpt>
      <trkpt lat="43.52898" lon="5.56022">
        <ele>302.87</ele>
        <time>2018-12-22T10:37:43Z</time>
      </trkpt>
      <trkpt lat="43.52882" lon="5.56011">
        <ele>302.27</ele>
        <time>2018-12-22T10:37:55Z</time>
      </trkpt>
      <trkpt lat="43.52879" lon="5.55985">
        <ele>303.4</ele>
        <time>2018-12-22T10:38:07Z</time>
      </trkpt>
      <trkpt lat="43.52869" lon="5.55964">
        <ele>304.03</ele>
        <time>2018-12-22T10:38:18Z</time>
      </trkpt>
      <trkpt lat="43.52861" lon="5.55941">
        <ele>304.09</ele>
        <time>2018-12-22T10:38:27Z</time>
      </trkpt>
      <trkpt lat="43.52851" lon="5.5592">
        <ele>302.77</ele>
        <time>2018-12-22T10:38:35Z</time>
      </trkpt>
      <trkpt lat="43.52837" lon="5.55901">
        <ele>303.34</ele>
        <time>2018-12-22T10:38:43Z</time>
      </trkpt>
      <trkpt lat="43.52828" lon="5.55876">
        <ele>304.18</ele>
        <time>2018-12-22T10:38:51Z</time>
      </trkpt>
      <trkpt lat="43.52818" lon="5.55855">
        <ele>304.95</ele>
        <time>2018-12-22T10:39:00Z</time>
      </trkpt>
      <trkpt lat="43.52813" lon="5.55829">
        <ele>305.45</ele>
        <time>2018-12-22T10:39:09Z</time>
      </trkpt>
      <trkpt lat="43.52809" lon="5.55802">
        <ele>306.22</ele>
        <time>2018-12-22T10:39:18Z</time>
      </trkpt>
      <trkpt lat="43.52802" lon="5.55779">
        <ele>306.65</ele>
        <time>2018-12-22T10:39:26Z</time>
      </trkpt>
      <trkpt lat="43.52799" lon="5.55752">
        <ele>306.63</ele>
        <time>2018-12-22T10:39:34Z</time>
      </trkpt>
      <trkpt lat="43.52794" lon="5.55727">
        <ele>308.09</ele>
        <time>2018-12-22T10:39:43Z</time>
      </trkpt>
      <trkpt lat="43.52782" lon="5.55708">
        <ele>310.05</ele>
        <time>2018-12-22T10:39:52Z</time>
      </trkpt>
      <trkpt lat="43.5278" lon="5.55734">
        <ele>312.68</ele>
        <time>2018-12-22T10:41:11Z</time>
      </trkpt>
      <trkpt lat="43.52784" lon="5.55759">
        <ele>315.07</ele>
        <time>2018-12-22T10:41:21Z</time>
      </trkpt>
      <trkpt lat="43.52787" lon="5.55786">
        <ele>317.1</ele>
        <time>2018-12-22T10:41:32Z</time>
      </trkpt>
      <trkpt lat="43.5279" lon="5.5581">
        <ele>319.21</ele>
        <time>2018-12-22T10:41:42Z</time>
      </trkpt>
      <trkpt lat="43.52794" lon="5.55835">
        <ele>320.6</ele>
        <time>2018-12-22T10:41:53Z</time>
      </trkpt>
      <trkpt lat="43.52795" lon="5.5586">
        <ele>322.6</ele>
        <time>2018-12-22T10:42:04Z</time>
      </trkpt>
      <trkpt lat="43.52797" lon="5.55885">
        <ele>323.92</ele>
        <time>2018-12-22T10:42:13Z</time>
      </trkpt>
      <trkpt lat="43.52801" lon="5.55911">
        <ele>325.72</ele>
        <time>2018-12-22T10:42:24Z</time>
      </trkpt>
      <trkpt lat="43.52804" lon="5.55938">
        <ele>326.76</ele>
        <time>2018-12-22T10:42:35Z</time>
      </trkpt>
      <trkpt lat="43.52806" lon="5.55963">
        <ele>328.7</ele>
        <time>2018-12-22T10:42:46Z</time>
      </trkpt>
      <trkpt lat="43.52807" lon="5.55988">
        <ele>330.32</ele>
        <time>2018-12-22T10:42:57Z</time>
      </trkpt>
      <trkpt lat="43.5281" lon="5.56014">
        <ele>331.9</ele>
        <time>2018-12-22T10:43:10Z</time>
      </trkpt>
      <trkpt lat="43.52813" lon="5.56039">
        <ele>333.82</ele>
        <time>2018-12-22T10:43:21Z</time>
      </trkpt>
      <trkpt lat="43.52815" lon="5.56064">
        <ele>336.27</ele>
        <time>2018-12-22T10:43:33Z</time>
      </trkpt>
      <trkpt lat="43.52818" lon="5.5609">
        <ele>339</ele>
        <time>2018-12-22T10:43:45Z</time>
      </trkpt>
      <trkpt lat="43.52822" lon="5.56114">
        <ele>333.2</ele>
        <time>2018-12-22T10:48:04Z</time>
      </trkpt>
      <trkpt lat="43.52829" lon="5.56137">
        <ele>336.49</ele>
        <time>2018-12-22T10:48:17Z</time>
      </trkpt>
      <trkpt lat="43.52835" lon="5.56161">
        <ele>341.27</ele>
        <time>2018-12-22T10:48:32Z</time>
      </trkpt>
      <trkpt lat="43.52843" lon="5.56184">
        <ele>347.64</ele>
        <time>2018-12-22T10:48:47Z</time>
      </trkpt>
      <trkpt lat="43.52854" lon="5.56206">
        <ele>354.45</ele>
        <time>2018-12-22T10:49:01Z</time>
      </trkpt>
      <trkpt lat="43.52861" lon="5.5623">
        <ele>357.34</ele>
        <time>2018-12-22T10:49:14Z</time>
      </trkpt>
      <trkpt lat="43.52864" lon="5.56257">
        <ele>358.44</ele>
        <time>2018-12-22T10:49:25Z</time>
      </trkpt>
      <trkpt lat="43.52863" lon="5.56282">
        <ele>358.86</ele>
        <time>2018-12-22T10:49:33Z</time>
      </trkpt>
      <trkpt lat="43.52859" lon="5.56309">
        <ele>359.6</ele>
        <time>2018-12-22T10:49:42Z</time>
      </trkpt>
      <trkpt lat="43.52864" lon="5.56335">
        <ele>361.31</ele>
        <time>2018-12-22T10:49:51Z</time>
      </trkpt>
      <trkpt lat="43.52868" lon="5.56359">
        <ele>363.68</ele>
        <time>2018-12-22T10:50:01Z</time>
      </trkpt>
      <trkpt lat="43.52871" lon="5.56386">
        <ele>365.72</ele>
        <time>2018-12-22T10:50:10Z</time>
      </trkpt>
      <trkpt lat="43.52875" lon="5.56412">
        <ele>365.96</ele>
        <time>2018-12-22T10:50:19Z</time>
      </trkpt>
      <trkpt lat="43.52884" lon="5.56436">
        <ele>363.53</ele>
        <time>2018-12-22T10:50:28Z</time>
      </trkpt>
      <trkpt lat="43.52889" lon="5.56462">
        <ele>363.04</ele>
        <time>2018-12-22T10:50:34Z</time>
      </trkpt>
      <trkpt lat="43.52895" lon="5.56486">
        <ele>363.24</ele>
        <time>2018-12-22T10:50:40Z</time>
      </trkpt>
      <trkpt lat="43.52904" lon="5.56509">
        <ele>361.89</ele>
        <time>2018-12-22T10:50:47Z</time>
      </trkpt>
      <trkpt lat="43.52915" lon="5.56531">
        <ele>363.29</ele>
        <time>2018-12-22T10:50:55Z</time>
      </trkpt>
      <trkpt lat="43.52917" lon="5.56557">
        <ele>367.09</ele>
        <time>2018-12-22T10:51:04Z</time>
      </trkpt>
      <trkpt lat="43.52912" lon="5.56583">
        <ele>370.23</ele>
        <time>2018-12-22T10:51:13Z</time>
      </trkpt>
      <trkpt lat="43.52907" lon="5.56607">
        <ele>370.88</ele>
        <time>2018-12-22T10:51:21Z</time>
      </trkpt>
      <trkpt lat="43.529" lon="5.56634">
        <ele>369.79</ele>
        <time>2018-12-22T10:51:28Z</time>
      </trkpt>
      <trkpt lat="43.52896" lon="5.56659">
        <ele>369.63</ele>
        <time>2018-12-22T10:51:35Z</time>
      </trkpt>
      <trkpt lat="43.52892" lon="5.56683">
        <ele>373.11</ele>
        <time>2018-12-22T10:51:45Z</time>
      </trkpt>
      <trkpt lat="43.5289" lon="5.5671">
        <ele>376.87</ele>
        <time>2018-12-22T10:51:55Z</time>
      </trkpt>
      <trkpt lat="43.52892" lon="5.56736">
        <ele>377.61</ele>
        <time>2018-12-22T10:52:00Z</time>
      </trkpt>
      <trkpt lat="43.52894" lon="5.56762">
        <ele>378.42</ele>
        <time>2018-12-22T10:52:06Z</time>
      </trkpt>
      <trkpt lat="43.52893" lon="5.56787">
        <ele>378.18</ele>
        <time>2018-12-22T10:52:12Z</time>
      </trkpt>
      <trkpt lat="43.52887" lon="5.56811">
        <ele>379.45</ele>
        <time>2018-12-22T10:52:18Z</time>
      </trkpt>
      <trkpt lat="43.52881" lon="5.56835">
        <ele>379.37</ele>
        <time>2018-12-22T10:52:24Z</time>
      </trkpt>
      <trkpt lat="43.52879" lon="5.56862">
        <ele>380.22</ele>
        <time>2018-12-22T10:52:33Z</time>
      </trkpt>
      <trkpt lat="43.5288" lon="5.56888">
        <ele>380.87</ele>
        <time>2018-12-22T10:52:44Z</time>
      </trkpt>
      <trkpt lat="43.52888" lon="5.56912">
        <ele>381.52</ele>
        <time>2018-12-22T10:52:53Z</time>
      </trkpt>
      <trkpt lat="43.52906" lon="5.56916">
        <ele>382.42</ele>
        <time>2018-12-22T10:53:03Z</time>
      </trkpt>
      <trkpt lat="43.52925" lon="5.56915">
        <ele>382.44</ele>
        <time>2018-12-22T10:53:15Z</time>
      </trkpt>
      <trkpt lat="43.52936" lon="5.56937">
        <ele>386.75</ele>
        <time>2018-12-22T10:53:33Z</time>
      </trkpt>
      <trkpt lat="43.52935" lon="5.56962">
        <ele>390.97</ele>
        <time>2018-12-22T10:53:48Z</time>
      </trkpt>
      <trkpt lat="43.52932" lon="5.56987">
        <ele>394.5</ele>
        <time>2018-12-22T10:54:00Z</time>
      </trkpt>
      <trkpt lat="43.52924" lon="5.57009">
        <ele>396.05</ele>
        <time>2018-12-22T10:54:12Z</time>
      </trkpt>
      <trkpt lat="43.52912" lon="5.57027">
        <ele>396.82</ele>
        <time>2018-12-22T10:54:23Z</time>
      </trkpt>
      <trkpt lat="43.52897" lon="5.57043">
        <ele>398.24</ele>
        <time>2018-12-22T10:54:35Z</time>
      </trkpt>
      <trkpt lat="43.52889" lon="5.57068">
        <ele>397.34</ele>
        <time>2018-12-22T10:56:19Z</time>
      </trkpt>
      <trkpt lat="43.52881" lon="5.5709">
        <ele>398.6</ele>
        <time>2018-12-22T10:56:26Z</time>
      </trkpt>
      <trkpt lat="43.5287" lon="5.57112">
        <ele>399.47</ele>
        <time>2018-12-22T10:56:33Z</time>
      </trkpt>
      <trkpt lat="43.52861" lon="5.57134">
        <ele>398.24</ele>
        <time>2018-12-22T10:56:37Z</time>
      </trkpt>
      <trkpt lat="43.52848" lon="5.57161">
        <ele>397.07</ele>
        <time>2018-12-22T10:56:41Z</time>
      </trkpt>
      <trkpt lat="43.52835" lon="5.57182">
        <ele>396.59</ele>
        <time>2018-12-22T10:56:44Z</time>
      </trkpt>
      <trkpt lat="43.52816" lon="5.57202">
        <ele>395.63</ele>
        <time>2018-12-22T10:56:48Z</time>
      </trkpt>
      <trkpt lat="43.52804" lon="5.57221">
        <ele>394.85</ele>
        <time>2018-12-22T10:56:51Z</time>
      </trkpt>
      <trkpt lat="43.52795" lon="5.57243">
        <ele>393.03</ele>
        <time>2018-12-22T10:56:55Z</time>
      </trkpt>
      <trkpt lat="43.52788" lon="5.57273">
        <ele>389.69</ele>
        <time>2018-12-22T10:56:59Z</time>
      </trkpt>
      <trkpt lat="43.52782" lon="5.57299">
        <ele>387.57</ele>
        <time>2018-12-22T10:57:03Z</time>
      </trkpt>
      <trkpt lat="43.52767" lon="5.57281">
        <ele>383.6</ele>
        <time>2018-12-22T10:57:10Z</time>
      </trkpt>
      <trkpt lat="43.52753" lon="5.57261">
        <ele>380.1</ele>
        <time>2018-12-22T10:57:16Z</time>
      </trkpt>
      <trkpt lat="43.52742" lon="5.57239">
        <ele>375.3</ele>
        <time>2018-12-22T10:57:24Z</time>
      </trkpt>
      <trkpt lat="43.52742" lon="5.57208">
        <ele>372.02</ele>
        <time>2018-12-22T10:57:29Z</time>
      </trkpt>
      <trkpt lat="43.52741" lon="5.57176">
        <ele>369</ele>
        <time>2018-12-22T10:57:33Z</time>
      </trkpt>
      <trkpt lat="43.52735" lon="5.57146">
        <ele>366.79</ele>
        <time>2018-12-22T10:57:37Z</time>
      </trkpt>
      <trkpt lat="43.52738" lon="5.57116">
        <ele>365.08</ele>
        <time>2018-12-22T10:57:42Z</time>
      </trkpt>
      <trkpt lat="43.52736" lon="5.5709">
        <ele>363.9</ele>
        <time>2018-12-22T10:57:46Z</time>
      </trkpt>
      <trkpt lat="43.52725" lon="5.57064">
        <ele>362.41</ele>
        <time>2018-12-22T10:57:50Z</time>
      </trkpt>
      <trkpt lat="43.52709" lon="5.5704">
        <ele>360.68</ele>
        <time>2018-12-22T10:57:54Z</time>
      </trkpt>
      <trkpt lat="43.527" lon="5.57017">
        <ele>359.55</ele>
        <time>2018-12-22T10:57:57Z</time>
      </trkpt>
      <trkpt lat="43.5269" lon="5.56991">
        <ele>356.36</ele>
        <time>2018-12-22T10:58:01Z</time>
      </trkpt>
      <trkpt lat="43.52691" lon="5.56962">
        <ele>352.95</ele>
        <time>2018-12-22T10:58:05Z</time>
      </trkpt>
      <trkpt lat="43.52697" lon="5.56939">
        <ele>350.74</ele>
        <time>2018-12-22T10:58:08Z</time>
      </trkpt>
      <trkpt lat="43.52706" lon="5.5691">
        <ele>350.2</ele>
        <time>2018-12-22T10:58:12Z</time>
      </trkpt>
      <trkpt lat="43.5271" lon="5.56884">
        <ele>349.86</ele>
        <time>2018-12-22T10:58:17Z</time>
      </trkpt>
      <trkpt lat="43.527" lon="5.56864">
        <ele>350.32</ele>
        <time>2018-12-22T10:58:23Z</time>
      </trkpt>
      <trkpt lat="43.52681" lon="5.56848">
        <ele>345.77</ele>
        <time>2018-12-22T10:58:28Z</time>
      </trkpt>
      <trkpt lat="43.52663" lon="5.56838">
        <ele>343.31</ele>
        <time>2018-12-22T10:58:32Z</time>
      </trkpt>
      <trkpt lat="43.5266" lon="5.56811">
        <ele>341.06</ele>
        <time>2018-12-22T10:58:40Z</time>
      </trkpt>
      <trkpt lat="43.52661" lon="5.56784">
        <ele>338.45</ele>
        <time>2018-12-22T10:58:49Z</time>
      </trkpt>
      <trkpt lat="43.52648" lon="5.56763">
        <ele>333.77</ele>
        <time>2018-12-22T10:58:58Z</time>
      </trkpt>
      <trkpt lat="43.52629" lon="5.56769">
        <ele>330.57</ele>
        <time>2018-12-22T10:59:05Z</time>
      </trkpt>
      <trkpt lat="43.52613" lon="5.56787">
        <ele>326.85</ele>
        <time>2018-12-22T10:59:13Z</time>
      </trkpt>
      <trkpt lat="43.52601" lon="5.56768">
        <ele>318.67</ele>
        <time>2018-12-22T10:59:27Z</time>
      </trkpt>
      <trkpt lat="43.52598" lon="5.56743">
        <ele>313.92</ele>
        <time>2018-12-22T10:59:34Z</time>
      </trkpt>
      <trkpt lat="43.52591" lon="5.56719">
        <ele>308.85</ele>
        <time>2018-12-22T10:59:44Z</time>
      </trkpt>
      <trkpt lat="43.52581" lon="5.56698">
        <ele>304.37</ele>
        <time>2018-12-22T10:59:52Z</time>
      </trkpt>
      <trkpt lat="43.52598" lon="5.56687">
        <ele>302.82</ele>
        <time>2018-12-22T11:00:21Z</time>
      </trkpt>
      <trkpt lat="43.52596" lon="5.56659">
        <ele>303.05</ele>
        <time>2018-12-22T11:00:29Z</time>
      </trkpt>
      <trkpt lat="43.52583" lon="5.5664">
        <ele>303.24</ele>
        <time>2018-12-22T11:00:37Z</time>
      </trkpt>
      <trkpt lat="43.52568" lon="5.56623">
        <ele>302.77</ele>
        <time>2018-12-22T11:00:46Z</time>
      </trkpt>
      <trkpt lat="43.52562" lon="5.56597">
        <ele>302.39</ele>
        <time>2018-12-22T11:00:51Z</time>
      </trkpt>
      <trkpt lat="43.52564" lon="5.56565">
        <ele>301.49</ele>
        <time>2018-12-22T11:00:56Z</time>
      </trkpt>
      <trkpt lat="43.52566" lon="5.56534">
        <ele>300.5</ele>
        <time>2018-12-22T11:01:00Z</time>
      </trkpt>
      <trkpt lat="43.52573" lon="5.56512">
        <ele>299.88</ele>
        <time>2018-12-22T11:01:03Z</time>
      </trkpt>
      <trkpt lat="43.52581" lon="5.56489">
        <ele>299.67</ele>
        <time>2018-12-22T11:01:06Z</time>
      </trkpt>
      <trkpt lat="43.52587" lon="5.56458">
        <ele>299.62</ele>
        <time>2018-12-22T11:01:10Z</time>
      </trkpt>
      <trkpt lat="43.52602" lon="5.5644">
        <ele>299.52</ele>
        <time>2018-12-22T11:01:14Z</time>
      </trkpt>
      <trkpt lat="43.5262" lon="5.56424">
        <ele>298.94</ele>
        <time>2018-12-22T11:01:19Z</time>
      </trkpt>
      <trkpt lat="43.52638" lon="5.56423">
        <ele>300.26</ele>
        <time>2018-12-22T11:01:24Z</time>
      </trkpt>
      <trkpt lat="43.52653" lon="5.56408">
        <ele>299.87</ele>
        <time>2018-12-22T11:01:32Z</time>
      </trkpt>
      <trkpt lat="43.52653" lon="5.5638">
        <ele>297.87</ele>
        <time>2018-12-22T11:01:37Z</time>
      </trkpt>
      <trkpt lat="43.52648" lon="5.56347">
        <ele>294.39</ele>
        <time>2018-12-22T11:01:41Z</time>
      </trkpt>
      <trkpt lat="43.52645" lon="5.56317">
        <ele>291.48</ele>
        <time>2018-12-22T11:01:44Z</time>
      </trkpt>
      <trkpt lat="43.52643" lon="5.56284">
        <ele>288.77</ele>
        <time>2018-12-22T11:01:47Z</time>
      </trkpt>
      <trkpt lat="43.52641" lon="5.56248">
        <ele>286.07</ele>
        <time>2018-12-22T11:01:50Z</time>
      </trkpt>
      <trkpt lat="43.5264" lon="5.56212">
        <ele>283.04</ele>
        <time>2018-12-22T11:01:53Z</time>
      </trkpt>
      <trkpt lat="43.5264" lon="5.56186">
        <ele>281</ele>
        <time>2018-12-22T11:01:55Z</time>
      </trkpt>
      <trkpt lat="43.5264" lon="5.56161">
        <ele>279.11</ele>
        <time>2018-12-22T11:01:57Z</time>
      </trkpt>
      <trkpt lat="43.52641" lon="5.56136">
        <ele>277.08</ele>
        <time>2018-12-22T11:01:59Z</time>
      </trkpt>
      <trkpt lat="43.52641" lon="5.5611">
        <ele>275.11</ele>
        <time>2018-12-22T11:02:01Z</time>
      </trkpt>
      <trkpt lat="43.52639" lon="5.56085">
        <ele>274.31</ele>
        <time>2018-12-22T11:02:03Z</time>
      </trkpt>
      <trkpt lat="43.5263" lon="5.56053">
        <ele>272.45</ele>
        <time>2018-12-22T11:02:06Z</time>
      </trkpt>
      <trkpt lat="43.5262" lon="5.56024">
        <ele>270.58</ele>
        <time>2018-12-22T11:02:09Z</time>
      </trkpt>
      <trkpt lat="43.52625" lon="5.55997">
        <ele>268.99</ele>
        <time>2018-12-22T11:02:12Z</time>
      </trkpt>
      <trkpt lat="43.5264" lon="5.55982">
        <ele>268.26</ele>
        <time>2018-12-22T11:02:15Z</time>
      </trkpt>
      <trkpt lat="43.52659" lon="5.5597">
        <ele>267.93</ele>
        <time>2018-12-22T11:02:19Z</time>
      </trkpt>
      <trkpt lat="43.5266" lon="5.55941">
        <ele>267.1</ele>
        <time>2018-12-22T11:02:23Z</time>
      </trkpt>
      <trkpt lat="43.52653" lon="5.55916">
        <ele>266.6</ele>
        <time>2018-12-22T11:02:26Z</time>
      </trkpt>
      <trkpt lat="43.52652" lon="5.55888">
        <ele>265.7</ele>
        <time>2018-12-22T11:02:30Z</time>
      </trkpt>
      <trkpt lat="43.52641" lon="5.55864">
        <ele>265.19</ele>
        <time>2018-12-22T11:02:37Z</time>
      </trkpt>
      <trkpt lat="43.52633" lon="5.55839">
        <ele>264.4</ele>
        <time>2018-12-22T11:02:42Z</time>
      </trkpt>
      <trkpt lat="43.52622" lon="5.55818">
        <ele>263.6</ele>
        <time>2018-12-22T11:02:47Z</time>
      </trkpt>
      <trkpt lat="43.52606" lon="5.558">
        <ele>263.27</ele>
        <time>2018-12-22T11:02:52Z</time>
      </trkpt>
      <trkpt lat="43.52589" lon="5.55785">
        <ele>262.38</ele>
        <time>2018-12-22T11:02:59Z</time>
      </trkpt>
      <trkpt lat="43.52573" lon="5.55776">
        <ele>261.59</ele>
        <time>2018-12-22T11:03:04Z</time>
      </trkpt>
      <trkpt lat="43.52564" lon="5.55752">
        <ele>259.32</ele>
        <time>2018-12-22T11:03:11Z</time>
      </trkpt>
      <trkpt lat="43.52555" lon="5.55725">
        <ele>257.82</ele>
        <time>2018-12-22T11:03:16Z</time>
      </trkpt>
      <trkpt lat="43.5255" lon="5.557">
        <ele>256.68</ele>
        <time>2018-12-22T11:03:20Z</time>
      </trkpt>
      <trkpt lat="43.52538" lon="5.55679">
        <ele>255.04</ele>
        <time>2018-12-22T11:03:24Z</time>
      </trkpt>
      <trkpt lat="43.52529" lon="5.55657">
        <ele>252.4</ele>
        <time>2018-12-22T11:03:32Z</time>
      </trkpt>
      <trkpt lat="43.52511" lon="5.5565">
        <ele>246.37</ele>
        <time>2018-12-22T11:04:32Z</time>
      </trkpt>
      <trkpt lat="43.525" lon="5.55629">
        <ele>245.87</ele>
        <time>2018-12-22T11:04:40Z</time>
      </trkpt>
      <trkpt lat="43.52497" lon="5.55603">
        <ele>245.74</ele>
        <time>2018-12-22T11:04:45Z</time>
      </trkpt>
      <trkpt lat="43.52483" lon="5.55582">
        <ele>245.37</ele>
        <time>2018-12-22T11:04:51Z</time>
      </trkpt>
      <trkpt lat="43.5247" lon="5.55561">
        <ele>244.89</ele>
        <time>2018-12-22T11:04:55Z</time>
      </trkpt>
      <trkpt lat="43.52465" lon="5.5553">
        <ele>244.15</ele>
        <time>2018-12-22T11:05:00Z</time>
      </trkpt>
      <trkpt lat="43.52462" lon="5.55501">
        <ele>243.39</ele>
        <time>2018-12-22T11:05:04Z</time>
      </trkpt>
      <trkpt lat="43.5246" lon="5.55473">
        <ele>242.24</ele>
        <time>2018-12-22T11:05:08Z</time>
      </trkpt>
      <trkpt lat="43.52458" lon="5.55443">
        <ele>241.2</ele>
        <time>2018-12-22T11:05:12Z</time>
      </trkpt>
      <trkpt lat="43.52449" lon="5.55419">
        <ele>240.29</ele>
        <time>2018-12-22T11:05:17Z</time>
      </trkpt>
      <trkpt lat="43.52432" lon="5.55399">
        <ele>239.4</ele>
        <time>2018-12-22T11:05:22Z</time>
      </trkpt>
      <trkpt lat="43.52415" lon="5.55378">
        <ele>238.77</ele>
        <time>2018-12-22T11:05:27Z</time>
      </trkpt>
      <trkpt lat="43.52397" lon="5.55357">
        <ele>238.19</ele>
        <time>2018-12-22T11:05:31Z</time>
      </trkpt>
      <trkpt lat="43.52378" lon="5.55337">
        <ele>237.12</ele>
        <time>2018-12-22T11:05:35Z</time>
      </trkpt>
      <trkpt lat="43.52367" lon="5.55313">
        <ele>237.58</ele>
        <time>2018-12-22T11:05:40Z</time>
      </trkpt>
      <trkpt lat="43.52357" lon="5.5529">
        <ele>233.77</ele>
        <time>2018-12-22T11:05:47Z</time>
      </trkpt>
      <trkpt lat="43.52366" lon="5.55261">
        <ele>231.67</ele>
        <time>2018-12-22T11:05:51Z</time>
      </trkpt>
      <trkpt lat="43.52363" lon="5.55235">
        <ele>230.42</ele>
        <time>2018-12-22T11:05:55Z</time>
      </trkpt>
      <trkpt lat="43.52356" lon="5.5521">
        <ele>226.77</ele>
        <time>2018-12-22T11:06:01Z</time>
      </trkpt>
      <trkpt lat="43.52339" lon="5.55198">
        <ele>222.92</ele>
        <time>2018-12-22T11:06:06Z</time>
      </trkpt>
      <trkpt lat="43.5232" lon="5.55198">
        <ele>218.84</ele>
        <time>2018-12-22T11:06:11Z</time>
      </trkpt>
      <trkpt lat="43.52298" lon="5.55197">
        <ele>215.23</ele>
        <time>2018-12-22T11:06:16Z</time>
      </trkpt>
      <trkpt lat="43.52276" lon="5.55192">
        <ele>212.08</ele>
        <time>2018-12-22T11:06:21Z</time>
      </trkpt>
      <trkpt lat="43.52258" lon="5.5518">
        <ele>210.56</ele>
        <time>2018-12-22T11:06:26Z</time>
      </trkpt>
      <trkpt lat="43.52244" lon="5.55161">
        <ele>208.57</ele>
        <time>2018-12-22T11:06:30Z</time>
      </trkpt>
      <trkpt lat="43.52228" lon="5.55145">
        <ele>206.71</ele>
        <time>2018-12-22T11:06:34Z</time>
      </trkpt>
      <trkpt lat="43.52215" lon="5.55125">
        <ele>203.54</ele>
        <time>2018-12-22T11:06:39Z</time>
      </trkpt>
      <trkpt lat="43.52203" lon="5.55101">
        <ele>201.54</ele>
        <time>2018-12-22T11:06:45Z</time>
      </trkpt>
      <trkpt lat="43.52196" lon="5.55078">
        <ele>200.12</ele>
        <time>2018-12-22T11:06:50Z</time>
      </trkpt>
      <trkpt lat="43.52189" lon="5.55054">
        <ele>198.92</ele>
        <time>2018-12-22T11:06:54Z</time>
      </trkpt>
      <trkpt lat="43.52181" lon="5.55026">
        <ele>198.67</ele>
        <time>2018-12-22T11:06:58Z</time>
      </trkpt>
      <trkpt lat="43.52174" lon="5.55003">
        <ele>198.26</ele>
        <time>2018-12-22T11:07:01Z</time>
      </trkpt>
      <trkpt lat="43.52167" lon="5.54976">
        <ele>198.32</ele>
        <time>2018-12-22T11:07:04Z</time>
      </trkpt>
      <trkpt lat="43.5216" lon="5.54947">
        <ele>198.25</ele>
        <time>2018-12-22T11:07:07Z</time>
      </trkpt>
      <trkpt lat="43.52152" lon="5.54915">
        <ele>197.85</ele>
        <time>2018-12-22T11:07:10Z</time>
      </trkpt>
      <trkpt lat="43.52143" lon="5.54885">
        <ele>197.39</ele>
        <time>2018-12-22T11:07:13Z</time>
      </trkpt>
      <trkpt lat="43.52135" lon="5.54858">
        <ele>196.82</ele>
        <time>2018-12-22T11:07:16Z</time>
      </trkpt>
      <trkpt lat="43.52125" lon="5.54832">
        <ele>195.51</ele>
        <time>2018-12-22T11:07:19Z</time>
      </trkpt>
      <trkpt lat="43.52113" lon="5.54808">
        <ele>194.98</ele>
        <time>2018-12-22T11:07:22Z</time>
      </trkpt>
      <trkpt lat="43.52101" lon="5.54784">
        <ele>194.51</ele>
        <time>2018-12-22T11:07:25Z</time>
      </trkpt>
      <trkpt lat="43.52093" lon="5.54758">
        <ele>193.83</ele>
        <time>2018-12-22T11:07:28Z</time>
      </trkpt>
      <trkpt lat="43.52086" lon="5.54729">
        <ele>194.16</ele>
        <time>2018-12-22T11:07:31Z</time>
      </trkpt>
      <trkpt lat="43.52079" lon="5.547">
        <ele>193.38</ele>
        <time>2018-12-22T11:07:34Z</time>
      </trkpt>
      <trkpt lat="43.5208" lon="5.54674">
        <ele>192.95</ele>
        <time>2018-12-22T11:07:38Z</time>
      </trkpt>
      <trkpt lat="43.52097" lon="5.54662">
        <ele>193.03</ele>
        <time>2018-12-22T11:07:42Z</time>
      </trkpt>
      <trkpt lat="43.52115" lon="5.54661">
        <ele>193.05</ele>
        <time>2018-12-22T11:07:47Z</time>
      </trkpt>
      <trkpt lat="43.52135" lon="5.54664">
        <ele>193.69</ele>
        <time>2018-12-22T11:07:54Z</time>
      </trkpt>
      <trkpt lat="43.52155" lon="5.5467">
        <ele>198.49</ele>
        <time>2018-12-22T11:08:01Z</time>
      </trkpt>
      <trkpt lat="43.52175" lon="5.54668">
        <ele>200.13</ele>
        <time>2018-12-22T11:08:09Z</time>
      </trkpt>
      <trkpt lat="43.52195" lon="5.5467">
        <ele>201.83</ele>
        <time>2018-12-22T11:08:17Z</time>
      </trkpt>
      <trkpt lat="43.52214" lon="5.54677">
        <ele>202.97</ele>
        <time>2018-12-22T11:08:24Z</time>
      </trkpt>
      <trkpt lat="43.52233" lon="5.54685">
        <ele>203.27</ele>
        <time>2018-12-22T11:08:31Z</time>
      </trkpt>
      <trkpt lat="43.52244" lon="5.54708">
        <ele>204.6</ele>
        <time>2018-12-22T11:08:39Z</time>
      </trkpt>
      <trkpt lat="43.52261" lon="5.54719">
        <ele>204.85</ele>
        <time>2018-12-22T11:08:48Z</time>
      </trkpt>
      <trkpt lat="43.52279" lon="5.54734">
        <ele>204.46</ele>
        <time>2018-12-22T11:08:54Z</time>
      </trkpt>
      <trkpt lat="43.52291" lon="5.54755">
        <ele>204.83</ele>
        <time>2018-12-22T11:08:59Z</time>
      </trkpt>
      <trkpt lat="43.52299" lon="5.54781">
        <ele>205.42</ele>
        <time>2018-12-22T11:09:05Z</time>
      </trkpt>
      <trkpt lat="43.52315" lon="5.54795">
        <ele>206</ele>
        <time>2018-12-22T11:09:12Z</time>
      </trkpt>
      <trkpt lat="43.52333" lon="5.54795">
        <ele>205.61</ele>
        <time>2018-12-22T11:09:18Z</time>
      </trkpt>
      <trkpt lat="43.52342" lon="5.54773">
        <ele>206.65</ele>
        <time>2018-12-22T11:09:26Z</time>
      </trkpt>
    </trkseg>
  </trk>
</gpx>